﻿<?xml version="1.0" encoding="utf-8"?><gpx creator="Garmin Desktop App" version="1.1" xsi:schemaLocation="http://www.topografix.com/GPX/1/1 http://www.topografix.com/GPX/1/1/gpx.xsd http://www.garmin.com/xmlschemas/WaypointExtension/v1 http://www8.garmin.com/xmlschemas/WaypointExtensionv1.xsd http://www.garmin.com/xmlschemas/TrackPointExtension/v1 http://www.garmin.com/xmlschemas/TrackPointExtensionv1.xsd http://www.garmin.com/xmlschemas/GpxExtensions/v3 http://www8.garmin.com/xmlschemas/GpxExtensionsv3.xsd http://www.garmin.com/xmlschemas/ActivityExtension/v1 http://www8.garmin.com/xmlschemas/ActivityExtensionv1.xsd http://www.garmin.com/xmlschemas/AdventuresExtensions/v1 http://www8.garmin.com/xmlschemas/AdventuresExtensionv1.xsd http://www.garmin.com/xmlschemas/PressureExtension/v1 http://www.garmin.com/xmlschemas/PressureExtensionv1.xsd http://www.garmin.com/xmlschemas/TripExtensions/v1 http://www.garmin.com/xmlschemas/TripExtensionsv1.xsd http://www.garmin.com/xmlschemas/TripMetaDataExtensions/v1 http://www.garmin.com/xmlschemas/TripMetaDataExtensionsv1.xsd http://www.garmin.com/xmlschemas/ViaPointTransportationModeExtensions/v1 http://www.garmin.com/xmlschemas/ViaPointTransportationModeExtensionsv1.xsd http://www.garmin.com/xmlschemas/CreationTimeExtension/v1 http://www.garmin.com/xmlschemas/CreationTimeExtensionsv1.xsd http://www.garmin.com/xmlschemas/AccelerationExtension/v1 http://www.garmin.com/xmlschemas/AccelerationExtensionv1.xsd http://www.garmin.com/xmlschemas/PowerExtension/v1 http://www.garmin.com/xmlschemas/PowerExtensionv1.xsd http://www.garmin.com/xmlschemas/VideoExtension/v1 http://www.garmin.com/xmlschemas/VideoExtensionv1.xsd" xmlns="http://www.topografix.com/GPX/1/1" xmlns:xsi="http://www.w3.org/2001/XMLSchema-instance" xmlns:wptx1="http://www.garmin.com/xmlschemas/WaypointExtension/v1" xmlns:gpxtrx="http://www.garmin.com/xmlschemas/GpxExtensions/v3" xmlns:gpxtpx="http://www.garmin.com/xmlschemas/TrackPointExtension/v1" xmlns:gpxx="http://www.garmin.com/xmlschemas/GpxExtensions/v3" xmlns:trp="http://www.garmin.com/xmlschemas/TripExtensions/v1" xmlns:adv="http://www.garmin.com/xmlschemas/AdventuresExtensions/v1" xmlns:prs="http://www.garmin.com/xmlschemas/PressureExtension/v1" xmlns:tmd="http://www.garmin.com/xmlschemas/TripMetaDataExtensions/v1" xmlns:vptm="http://www.garmin.com/xmlschemas/ViaPointTransportationModeExtensions/v1" xmlns:ctx="http://www.garmin.com/xmlschemas/CreationTimeExtension/v1" xmlns:gpxacc="http://www.garmin.com/xmlschemas/AccelerationExtension/v1" xmlns:gpxpx="http://www.garmin.com/xmlschemas/PowerExtension/v1" xmlns:vidx1="http://www.garmin.com/xmlschemas/VideoExtension/v1">

  <metadata>
    <link href="http://www.garmin.com">
      <text>Garmin International</text>
    </link>
    <time>2021-08-22T18:36:13Z</time>
    <bounds maxlat="51.668859422206879" maxlon="5.203356239944696" minlat="51.638102950528264" minlon="5.13798275962472" />
  </metadata>

  <trk>
    <name>duinwal drie linden 17 km</name>
    <extensions>
      <gpxx:TrackExtension>
        <gpxx:DisplayColor>Magenta</gpxx:DisplayColor>
      </gpxx:TrackExtension>
    </extensions>
    <trkseg>
      <trkpt lat="51.638112422078848" lon="5.142272282391787">
        <ele>15.35</ele>
        <time>2019-09-08T08:19:52Z</time>
      </trkpt>
      <trkpt lat="51.638102950528264" lon="5.142271695658565">
        <ele>15.27</ele>
        <time>2019-09-08T08:20:13Z</time>
      </trkpt>
      <trkpt lat="51.638174448162317" lon="5.142295081168413">
        <ele>15.17</ele>
        <time>2019-09-08T08:20:34Z</time>
      </trkpt>
      <trkpt lat="51.638271845877171" lon="5.142367165535688">
        <ele>15.08</ele>
        <time>2019-09-08T08:20:54Z</time>
      </trkpt>
      <trkpt lat="51.638464462012053" lon="5.1423872821033">
        <ele>13.77</ele>
        <time>2019-09-08T08:24:38Z</time>
      </trkpt>
      <trkpt lat="51.638461109250784" lon="5.142004983499646">
        <ele>13.69</ele>
        <time>2019-09-08T08:24:55Z</time>
      </trkpt>
      <trkpt lat="51.638493547216058" lon="5.141746401786804">
        <ele>13.619999999999999</ele>
        <time>2019-09-08T08:25:09Z</time>
      </trkpt>
      <trkpt lat="51.638575438410044" lon="5.141426380723715">
        <ele>13.57</ele>
        <time>2019-09-08T08:25:24Z</time>
      </trkpt>
      <trkpt lat="51.638581305742264" lon="5.141402324661613">
        <ele>13.56</ele>
        <time>2019-09-08T08:25:25Z</time>
      </trkpt>
      <trkpt lat="51.638971315696836" lon="5.141492933034897">
        <ele>13.449999999999999</ele>
        <time>2019-09-08T08:25:55Z</time>
      </trkpt>
      <trkpt lat="51.639165356755257" lon="5.141557222232223">
        <ele>13.369999999999999</ele>
        <time>2019-09-08T08:26:09Z</time>
      </trkpt>
      <trkpt lat="51.639464423060417" lon="5.141633413732052">
        <ele>13.19</ele>
        <time>2019-09-08T08:26:33Z</time>
      </trkpt>
      <trkpt lat="51.639647483825684" lon="5.14169979840517">
        <ele>14.25</ele>
        <time>2019-09-08T08:26:49Z</time>
      </trkpt>
      <trkpt lat="51.639819983392954" lon="5.141752688214183">
        <ele>14.07</ele>
        <time>2019-09-08T08:27:04Z</time>
      </trkpt>
      <trkpt lat="51.639888044446707" lon="5.141777331009507">
        <ele>14.039999999999999</ele>
        <time>2019-09-08T08:27:09Z</time>
      </trkpt>
      <trkpt lat="51.640090132132173" lon="5.141841620206833">
        <ele>13.880000000000001</ele>
        <time>2019-09-08T08:27:26Z</time>
      </trkpt>
      <trkpt lat="51.640275539830327" lon="5.141934072598815">
        <ele>13.67</ele>
        <time>2019-09-08T08:27:42Z</time>
      </trkpt>
      <trkpt lat="51.640336224809289" lon="5.141965504735708">
        <ele>13.630000000000001</ele>
        <time>2019-09-08T08:27:46Z</time>
      </trkpt>
      <trkpt lat="51.640465473756194" lon="5.142079833894968">
        <ele>13.539999999999999</ele>
        <time>2019-09-08T08:27:53Z</time>
      </trkpt>
      <trkpt lat="51.640601847320795" lon="5.142490044236183">
        <ele>13.220000000000001</ele>
        <time>2019-09-08T08:28:15Z</time>
      </trkpt>
      <trkpt lat="51.640645349398255" lon="5.14293747022748">
        <ele>12.85</ele>
        <time>2019-09-08T08:28:36Z</time>
      </trkpt>
      <trkpt lat="51.640629842877388" lon="5.143270147964358">
        <ele>12.57</ele>
        <time>2019-09-08T08:28:51Z</time>
      </trkpt>
      <trkpt lat="51.640630513429642" lon="5.143528142943978">
        <ele>12.35</ele>
        <time>2019-09-08T08:29:03Z</time>
      </trkpt>
      <trkpt lat="51.640635710209608" lon="5.14383408240974">
        <ele>12.08</ele>
        <time>2019-09-08T08:29:18Z</time>
      </trkpt>
      <trkpt lat="51.640596985816956" lon="5.144338170066476">
        <ele>11.66</ele>
        <time>2019-09-08T08:29:40Z</time>
      </trkpt>
      <trkpt lat="51.640575360506773" lon="5.144752655178309">
        <ele>11.289999999999999</ele>
        <time>2019-09-08T08:30:00Z</time>
      </trkpt>
      <trkpt lat="51.640535797923803" lon="5.14511383138597">
        <ele>11.029999999999999</ele>
        <time>2019-09-08T08:30:14Z</time>
      </trkpt>
      <trkpt lat="51.640521716326475" lon="5.145333604887128">
        <ele>10.83</ele>
        <time>2019-09-08T08:30:26Z</time>
      </trkpt>
      <trkpt lat="51.640456672757864" lon="5.14556729234755">
        <ele>10.58</ele>
        <time>2019-09-08T08:30:40Z</time>
      </trkpt>
      <trkpt lat="51.640320047736168" lon="5.146161736920476">
        <ele>10.199999999999999</ele>
        <time>2019-09-08T08:31:04Z</time>
      </trkpt>
      <trkpt lat="51.640208065509796" lon="5.146643947809935">
        <ele>9.859999999999999</ele>
        <time>2019-09-08T08:31:26Z</time>
      </trkpt>
      <trkpt lat="51.640050653368235" lon="5.147035969421268">
        <ele>9.470000000000001</ele>
        <time>2019-09-08T08:31:51Z</time>
      </trkpt>
      <trkpt lat="51.639951830729842" lon="5.147293042391539">
        <ele>9.279999999999999</ele>
        <time>2019-09-08T08:32:03Z</time>
      </trkpt>
      <trkpt lat="51.63980808109045" lon="5.147763853892684">
        <ele>8.94</ele>
        <time>2019-09-08T08:32:23Z</time>
      </trkpt>
      <trkpt lat="51.639594342559576" lon="5.148249082267284">
        <ele>8.560000000000001</ele>
        <time>2019-09-08T08:32:43Z</time>
      </trkpt>
      <trkpt lat="51.639575734734535" lon="5.14840473420918">
        <ele>8.49</ele>
        <time>2019-09-08T08:32:47Z</time>
      </trkpt>
      <trkpt lat="51.639586463570595" lon="5.148487631231546">
        <ele>8.449999999999999</ele>
        <time>2019-09-08T08:32:50Z</time>
      </trkpt>
      <trkpt lat="51.639590738341212" lon="5.148650240153074">
        <ele>7.87</ele>
        <time>2019-09-08T08:33:28Z</time>
      </trkpt>
      <trkpt lat="51.639800956472754" lon="5.148684857413173">
        <ele>7.56</ele>
        <time>2019-09-08T08:33:47Z</time>
      </trkpt>
      <trkpt lat="51.640111757442355" lon="5.14873112551868">
        <ele>7.26</ele>
        <time>2019-09-08T08:34:05Z</time>
      </trkpt>
      <trkpt lat="51.640378637239337" lon="5.148796001449227">
        <ele>6.98</ele>
        <time>2019-09-08T08:34:21Z</time>
      </trkpt>
      <trkpt lat="51.640547616407275" lon="5.148865403607488">
        <ele>6.74</ele>
        <time>2019-09-08T08:34:34Z</time>
      </trkpt>
      <trkpt lat="51.64073009043932" lon="5.148932626470923">
        <ele>6.46</ele>
        <time>2019-09-08T08:34:50Z</time>
      </trkpt>
      <trkpt lat="51.641328809782863" lon="5.149227920919657">
        <ele>5.68</ele>
        <time>2019-09-08T08:35:34Z</time>
      </trkpt>
      <trkpt lat="51.642017466947436" lon="5.149452555924654">
        <ele>4.9</ele>
        <time>2019-09-08T08:36:24Z</time>
      </trkpt>
      <trkpt lat="51.64245349355042" lon="5.149640897288919">
        <ele>4.55</ele>
        <time>2019-09-08T08:36:47Z</time>
      </trkpt>
      <trkpt lat="51.64265088737011" lon="5.149791687726975">
        <ele>4.34</ele>
        <time>2019-09-08T08:37:01Z</time>
      </trkpt>
      <trkpt lat="51.642805617302656" lon="5.14993904158473">
        <ele>1.95</ele>
        <time>2019-09-08T08:37:12Z</time>
      </trkpt>
      <trkpt lat="51.642871499061584" lon="5.150052532553673">
        <ele>1.81</ele>
        <time>2019-09-08T08:37:21Z</time>
      </trkpt>
      <trkpt lat="51.64304718375206" lon="5.150237437337637">
        <ele>1.59</ele>
        <time>2019-09-08T08:37:36Z</time>
      </trkpt>
      <trkpt lat="51.643097475171089" lon="5.150360902771354">
        <ele>1.44</ele>
        <time>2019-09-08T08:37:46Z</time>
      </trkpt>
      <trkpt lat="51.64327341131866" lon="5.150450337678194">
        <ele>1.27</ele>
        <time>2019-09-08T08:37:57Z</time>
      </trkpt>
      <trkpt lat="51.643452197313309" lon="5.150509094819427">
        <ele>1</ele>
        <time>2019-09-08T08:38:14Z</time>
      </trkpt>
      <trkpt lat="51.643654117360711" lon="5.150573048740625">
        <ele>0.75</ele>
        <time>2019-09-08T08:38:31Z</time>
      </trkpt>
      <trkpt lat="51.644242778420448" lon="5.151131870225072">
        <ele>0.28</ele>
        <time>2019-09-08T08:39:10Z</time>
      </trkpt>
      <trkpt lat="51.644402453675866" lon="5.151554318144918">
        <ele>0.08</ele>
        <time>2019-09-08T08:39:29Z</time>
      </trkpt>
      <trkpt lat="51.644478561356664" lon="5.15176160261035">
        <ele>-0.03</ele>
        <time>2019-09-08T08:39:40Z</time>
      </trkpt>
      <trkpt lat="51.644476549699903" lon="5.151798315346241">
        <ele>-0.04</ele>
        <time>2019-09-08T08:39:41Z</time>
      </trkpt>
      <trkpt lat="51.644503371790051" lon="5.152020519599319">
        <ele>-0.16</ele>
        <time>2019-09-08T08:39:51Z</time>
      </trkpt>
      <trkpt lat="51.644602697342634" lon="5.1523875631392">
        <ele>-0.37</ele>
        <time>2019-09-08T08:40:08Z</time>
      </trkpt>
      <trkpt lat="51.644654078409076" lon="5.152606330811977">
        <ele>-0.51</ele>
        <time>2019-09-08T08:40:19Z</time>
      </trkpt>
      <trkpt lat="51.644804449751973" lon="5.153043111786246">
        <ele>-0.79</ele>
        <time>2019-09-08T08:40:39Z</time>
      </trkpt>
      <trkpt lat="51.644879216328263" lon="5.15328174456954">
        <ele>-0.96</ele>
        <time>2019-09-08T08:40:52Z</time>
      </trkpt>
      <trkpt lat="51.64496161043644" lon="5.153531357645989">
        <ele>-1.13</ele>
        <time>2019-09-08T08:41:06Z</time>
      </trkpt>
      <trkpt lat="51.6450051125139" lon="5.153869818896055">
        <ele>-1.27</ele>
        <time>2019-09-08T08:41:21Z</time>
      </trkpt>
      <trkpt lat="51.645215665921569" lon="5.154273323714733">
        <ele>-1.47</ele>
        <time>2019-09-08T08:41:43Z</time>
      </trkpt>
      <trkpt lat="51.645335694774985" lon="5.154564259573817">
        <ele>-1.61</ele>
        <time>2019-09-08T08:41:55Z</time>
      </trkpt>
      <trkpt lat="51.645419262349606" lon="5.15479207970202">
        <ele>-1.68</ele>
        <time>2019-09-08T08:42:05Z</time>
      </trkpt>
      <trkpt lat="51.645583296194673" lon="5.155105227604508">
        <ele>-1.77</ele>
        <time>2019-09-08T08:42:22Z</time>
      </trkpt>
      <trkpt lat="51.64559586904943" lon="5.155148478224874">
        <ele>0.48</ele>
        <time>2019-09-08T08:42:25Z</time>
      </trkpt>
      <trkpt lat="51.645649513229728" lon="5.155458189547062">
        <ele>0.39</ele>
        <time>2019-09-08T08:42:38Z</time>
      </trkpt>
      <trkpt lat="51.645779013633728" lon="5.155865214765072">
        <ele>0.34</ele>
        <time>2019-09-08T08:42:54Z</time>
      </trkpt>
      <trkpt lat="51.64583332836628" lon="5.156194539740682">
        <ele>0.33</ele>
        <time>2019-09-08T08:43:11Z</time>
      </trkpt>
      <trkpt lat="51.645875489339232" lon="5.156607180833817">
        <ele>0.38</ele>
        <time>2019-09-08T08:43:29Z</time>
      </trkpt>
      <trkpt lat="51.645913040265441" lon="5.15691613778472">
        <ele>0.42</ele>
        <time>2019-09-08T08:43:43Z</time>
      </trkpt>
      <trkpt lat="51.645988812670112" lon="5.157187459990382">
        <ele>0.46</ele>
        <time>2019-09-08T08:43:57Z</time>
      </trkpt>
      <trkpt lat="51.646016975864768" lon="5.157320816069841">
        <ele>0.49</ele>
        <time>2019-09-08T08:44:05Z</time>
      </trkpt>
      <trkpt lat="51.646056454628706" lon="5.157479485496879">
        <ele>0.52</ele>
        <time>2019-09-08T08:44:14Z</time>
      </trkpt>
      <trkpt lat="51.646069781854749" lon="5.157518126070499">
        <ele>0.53</ele>
        <time>2019-09-08T08:44:16Z</time>
      </trkpt>
      <trkpt lat="51.646106913685799" lon="5.157815180718899">
        <ele>0.57</ele>
        <time>2019-09-08T08:44:32Z</time>
      </trkpt>
      <trkpt lat="51.646148907020688" lon="5.158150121569634">
        <ele>0.57</ele>
        <time>2019-09-08T08:44:48Z</time>
      </trkpt>
      <trkpt lat="51.646290645003319" lon="5.158493109047413">
        <ele>1.38</ele>
        <time>2019-09-08T08:45:09Z</time>
      </trkpt>
      <trkpt lat="51.646466078236699" lon="5.158790918067098">
        <ele>2.1</ele>
        <time>2019-09-08T08:45:31Z</time>
      </trkpt>
      <trkpt lat="51.646553669124842" lon="5.159015636891127">
        <ele>2</ele>
        <time>2019-09-08T08:45:46Z</time>
      </trkpt>
      <trkpt lat="51.646616449579597" lon="5.159200625494123">
        <ele>-0.33</ele>
        <time>2019-09-08T08:45:57Z</time>
      </trkpt>
      <trkpt lat="51.646737232804298" lon="5.159694068133831">
        <ele>-1.31</ele>
        <time>2019-09-08T08:46:19Z</time>
      </trkpt>
      <trkpt lat="51.646806048229337" lon="5.15996958129108">
        <ele>-1.39</ele>
        <time>2019-09-08T08:46:33Z</time>
      </trkpt>
      <trkpt lat="51.646899674087763" lon="5.160086425021291">
        <ele>-1.52</ele>
        <time>2019-09-08T08:46:48Z</time>
      </trkpt>
      <trkpt lat="51.646936219185591" lon="5.160148786380887">
        <ele>-1.56</ele>
        <time>2019-09-08T08:46:52Z</time>
      </trkpt>
      <trkpt lat="51.647059516981244" lon="5.16017971560359">
        <ele>-1.7</ele>
        <time>2019-09-08T08:47:09Z</time>
      </trkpt>
      <trkpt lat="51.647171834483743" lon="5.160120287910104">
        <ele>-1.78</ele>
        <time>2019-09-08T08:47:16Z</time>
      </trkpt>
      <trkpt lat="51.647358164191246" lon="5.159966060891748">
        <ele>-1.96</ele>
        <time>2019-09-08T08:47:31Z</time>
      </trkpt>
      <trkpt lat="51.64742236956954" lon="5.159858521074057">
        <ele>-2.06</ele>
        <time>2019-09-08T08:47:39Z</time>
      </trkpt>
      <trkpt lat="51.647455478087068" lon="5.159823149442673">
        <ele>-2.08</ele>
        <time>2019-09-08T08:47:41Z</time>
      </trkpt>
      <trkpt lat="51.647670976817608" lon="5.159743605181575">
        <ele>-2.28</ele>
        <time>2019-09-08T08:47:55Z</time>
      </trkpt>
      <trkpt lat="51.64780299179256" lon="5.159620810300112">
        <ele>-2.46</ele>
        <time>2019-09-08T08:48:07Z</time>
      </trkpt>
      <trkpt lat="51.647981442511082" lon="5.159407407045364">
        <ele>-2.62</ele>
        <time>2019-09-08T08:48:17Z</time>
      </trkpt>
      <trkpt lat="51.64847731590271" lon="5.159188136458397">
        <ele>-3.01</ele>
        <time>2019-09-08T08:48:35Z</time>
      </trkpt>
      <trkpt lat="51.648502210155129" lon="5.159202385693789">
        <ele>-3.03</ele>
        <time>2019-09-08T08:48:36Z</time>
      </trkpt>
      <trkpt lat="51.6485486458987" lon="5.159208588302136">
        <ele>-3.06</ele>
        <time>2019-09-08T08:48:37Z</time>
      </trkpt>
      <trkpt lat="51.648594830185175" lon="5.15921856276691">
        <ele>-3.09</ele>
        <time>2019-09-08T08:48:38Z</time>
      </trkpt>
      <trkpt lat="51.648633806034923" lon="5.159236583858728">
        <ele>-3.94</ele>
        <time>2019-09-08T08:48:39Z</time>
      </trkpt>
      <trkpt lat="51.649100678041577" lon="5.159345380961895">
        <ele>-4.24</ele>
        <time>2019-09-08T08:48:51Z</time>
      </trkpt>
      <trkpt lat="51.649515079334378" lon="5.159561466425657">
        <ele>-4.49</ele>
        <time>2019-09-08T08:49:01Z</time>
      </trkpt>
      <trkpt lat="51.649846415966749" lon="5.159567501395941">
        <ele>-4.55</ele>
        <time>2019-09-08T08:49:03Z</time>
      </trkpt>
      <trkpt lat="51.650299122557044" lon="5.159941585734487">
        <ele>-4.78</ele>
        <time>2019-09-08T08:49:13Z</time>
      </trkpt>
      <trkpt lat="51.650521997362375" lon="5.160364452749491">
        <ele>-5.03</ele>
        <time>2019-09-08T08:49:24Z</time>
      </trkpt>
      <trkpt lat="51.650741100311279" lon="5.160808358341456">
        <ele>-5.34</ele>
        <time>2019-09-08T08:49:41Z</time>
      </trkpt>
      <trkpt lat="51.65082860738039" lon="5.161212282255292">
        <ele>-5.52</ele>
        <time>2019-09-08T08:49:56Z</time>
      </trkpt>
      <trkpt lat="51.650801114737988" lon="5.161396767944098">
        <ele>-5.57</ele>
        <time>2019-09-08T08:50:03Z</time>
      </trkpt>
      <trkpt lat="51.65080807171762" lon="5.16194025054574">
        <ele>-5.65</ele>
        <time>2019-09-08T08:50:20Z</time>
      </trkpt>
      <trkpt lat="51.650877892971039" lon="5.162076540291309">
        <ele>-5.69</ele>
        <time>2019-09-08T08:50:30Z</time>
      </trkpt>
      <trkpt lat="51.651036813855171" lon="5.162496892735362">
        <ele>-5.74</ele>
        <time>2019-09-08T08:50:43Z</time>
      </trkpt>
      <trkpt lat="51.651204703375697" lon="5.162893692031503">
        <ele>-5.81</ele>
        <time>2019-09-08T08:50:58Z</time>
      </trkpt>
      <trkpt lat="51.65168859064579" lon="5.162998214364052">
        <ele>-5.96</ele>
        <time>2019-09-08T08:51:13Z</time>
      </trkpt>
      <trkpt lat="51.652029398828745" lon="5.163241708651185">
        <ele>-6.06</ele>
        <time>2019-09-08T08:51:29Z</time>
      </trkpt>
      <trkpt lat="51.652058735489845" lon="5.163297113031149">
        <ele>-3.71</ele>
        <time>2019-09-08T08:51:33Z</time>
      </trkpt>
      <trkpt lat="51.652378086000681" lon="5.163492243736982">
        <ele>-3.95</ele>
        <time>2019-09-08T08:51:54Z</time>
      </trkpt>
      <trkpt lat="51.652403902262449" lon="5.163506492972374">
        <ele>-3.96</ele>
        <time>2019-09-08T08:51:55Z</time>
      </trkpt>
      <trkpt lat="51.652425192296505" lon="5.163517724722624">
        <ele>-3.97</ele>
        <time>2019-09-08T08:51:56Z</time>
      </trkpt>
      <trkpt lat="51.65244547650218" lon="5.163536332547665">
        <ele>-3.98</ele>
        <time>2019-09-08T08:51:57Z</time>
      </trkpt>
      <trkpt lat="51.652457462623715" lon="5.163549575954676">
        <ele>-3.98</ele>
        <time>2019-09-08T08:51:58Z</time>
      </trkpt>
      <trkpt lat="51.652621915563941" lon="5.163728781044483">
        <ele>-3.32</ele>
        <time>2019-09-08T08:52:11Z</time>
      </trkpt>
      <trkpt lat="51.652632812038064" lon="5.163743617013097">
        <ele>-3.33</ele>
        <time>2019-09-08T08:52:12Z</time>
      </trkpt>
      <trkpt lat="51.652795085683465" lon="5.164057435467839">
        <ele>-5.84</ele>
        <time>2019-09-08T08:52:32Z</time>
      </trkpt>
      <trkpt lat="51.652836324647069" lon="5.164364967495203">
        <ele>-6.77</ele>
        <time>2019-09-08T08:52:48Z</time>
      </trkpt>
      <trkpt lat="51.652861135080457" lon="5.164774255827069">
        <ele>-6.96</ele>
        <time>2019-09-08T08:53:09Z</time>
      </trkpt>
      <trkpt lat="51.652718726545572" lon="5.164897553622723">
        <ele>-7.11</ele>
        <time>2019-09-08T08:53:24Z</time>
      </trkpt>
      <trkpt lat="51.652533737942576" lon="5.164991598576307">
        <ele>-7.25</ele>
        <time>2019-09-08T08:53:38Z</time>
      </trkpt>
      <trkpt lat="51.651965528726578" lon="5.164901912212372">
        <ele>-5.17</ele>
        <time>2019-09-08T08:54:11Z</time>
      </trkpt>
      <trkpt lat="51.651689764112234" lon="5.164825972169638">
        <ele>-5.28</ele>
        <time>2019-09-08T08:54:18Z</time>
      </trkpt>
      <trkpt lat="51.651094229891896" lon="5.164828067645431">
        <ele>-7.71</ele>
        <time>2019-09-08T08:54:31Z</time>
      </trkpt>
      <trkpt lat="51.651064055040479" lon="5.164873832836747">
        <ele>-7.8</ele>
        <time>2019-09-08T08:54:32Z</time>
      </trkpt>
      <trkpt lat="51.651031281799078" lon="5.164913814514875">
        <ele>-7.72</ele>
        <time>2019-09-08T08:54:33Z</time>
      </trkpt>
      <trkpt lat="51.650997251272202" lon="5.165017498657107">
        <ele>-7.84</ele>
        <time>2019-09-08T08:54:35Z</time>
      </trkpt>
      <trkpt lat="51.650887867435813" lon="5.165441622957587">
        <ele>-7.81</ele>
        <time>2019-09-08T08:54:45Z</time>
      </trkpt>
      <trkpt lat="51.650867918506265" lon="5.165524268522859">
        <ele>-7.86</ele>
        <time>2019-09-08T08:54:47Z</time>
      </trkpt>
      <trkpt lat="51.650826428085566" lon="5.165753597393632">
        <ele>-7.86</ele>
        <time>2019-09-08T08:54:51Z</time>
      </trkpt>
      <trkpt lat="51.65079927071929" lon="5.165796428918839">
        <ele>-7.87</ele>
        <time>2019-09-08T08:54:52Z</time>
      </trkpt>
      <trkpt lat="51.650774460285902" lon="5.165824927389622">
        <ele>-7.76</ele>
        <time>2019-09-08T08:54:53Z</time>
      </trkpt>
      <trkpt lat="51.650754092261195" lon="5.16586541198194">
        <ele>-7.77</ele>
        <time>2019-09-08T08:54:54Z</time>
      </trkpt>
      <trkpt lat="51.650737915188074" lon="5.165903968736529">
        <ele>-7.87</ele>
        <time>2019-09-08T08:54:55Z</time>
      </trkpt>
      <trkpt lat="51.650724336504936" lon="5.165941938757896">
        <ele>-7.77</ele>
        <time>2019-09-08T08:54:56Z</time>
      </trkpt>
      <trkpt lat="51.650717714801431" lon="5.165977478027344">
        <ele>-7.89</ele>
        <time>2019-09-08T08:54:57Z</time>
      </trkpt>
      <trkpt lat="51.650702292099595" lon="5.166028859093785">
        <ele>-7.82</ele>
        <time>2019-09-08T08:54:58Z</time>
      </trkpt>
      <trkpt lat="51.650693491101265" lon="5.166073283180594">
        <ele>-7.85</ele>
        <time>2019-09-08T08:54:59Z</time>
      </trkpt>
      <trkpt lat="51.650689803063869" lon="5.166110582649708">
        <ele>-7.86</ele>
        <time>2019-09-08T08:55:00Z</time>
      </trkpt>
      <trkpt lat="51.650686031207442" lon="5.1661541685462">
        <ele>-5.53</ele>
        <time>2019-09-08T08:55:01Z</time>
      </trkpt>
      <trkpt lat="51.650681924074888" lon="5.166189959272742">
        <ele>-5.44</ele>
        <time>2019-09-08T08:55:02Z</time>
      </trkpt>
      <trkpt lat="51.650674883276224" lon="5.166248381137848">
        <ele>-5.54</ele>
        <time>2019-09-08T08:55:03Z</time>
      </trkpt>
      <trkpt lat="51.650660550221801" lon="5.166298924013972">
        <ele>-5.44</ele>
        <time>2019-09-08T08:55:04Z</time>
      </trkpt>
      <trkpt lat="51.650645462796092" lon="5.166347874328494">
        <ele>-5.43</ele>
        <time>2019-09-08T08:55:05Z</time>
      </trkpt>
      <trkpt lat="51.650631381198764" lon="5.16640436835587">
        <ele>-4.73</ele>
        <time>2019-09-08T08:55:07Z</time>
      </trkpt>
      <trkpt lat="51.650615036487579" lon="5.166497072204948">
        <ele>-4.76</ele>
        <time>2019-09-08T08:55:09Z</time>
      </trkpt>
      <trkpt lat="51.650611851364374" lon="5.166557086631656">
        <ele>-4.66</ele>
        <time>2019-09-08T08:55:10Z</time>
      </trkpt>
      <trkpt lat="51.650604642927647" lon="5.167212635278702">
        <ele>-4.92</ele>
        <time>2019-09-08T08:55:22Z</time>
      </trkpt>
      <trkpt lat="51.650657616555691" lon="5.16761077567935">
        <ele>-4.98</ele>
        <time>2019-09-08T08:55:31Z</time>
      </trkpt>
      <trkpt lat="51.650655269622803" lon="5.16818099655211">
        <ele>-7.55</ele>
        <time>2019-09-08T08:55:51Z</time>
      </trkpt>
      <trkpt lat="51.650703717023134" lon="5.168552901595831">
        <ele>-7.58</ele>
        <time>2019-09-08T08:56:06Z</time>
      </trkpt>
      <trkpt lat="51.650812933221459" lon="5.169033855199814">
        <ele>-8.58</ele>
        <time>2019-09-08T08:56:29Z</time>
      </trkpt>
      <trkpt lat="51.650976045057178" lon="5.16921398229897">
        <ele>-8.619999999999999</ele>
        <time>2019-09-08T08:56:44Z</time>
      </trkpt>
      <trkpt lat="51.651079813018441" lon="5.169556215405464">
        <ele>-8.68</ele>
        <time>2019-09-08T08:57:04Z</time>
      </trkpt>
      <trkpt lat="51.651045698672533" lon="5.169941866770387">
        <ele>-8.76</ele>
        <time>2019-09-08T08:57:21Z</time>
      </trkpt>
      <trkpt lat="51.651009069755673" lon="5.170294996351004">
        <ele>-8.869999999999999</ele>
        <time>2019-09-08T08:57:36Z</time>
      </trkpt>
      <trkpt lat="51.650994820520282" lon="5.170612754300237">
        <ele>-6.63</ele>
        <time>2019-09-08T08:57:50Z</time>
      </trkpt>
      <trkpt lat="51.650960706174374" lon="5.1714694686234">
        <ele>-6.82</ele>
        <time>2019-09-08T08:58:31Z</time>
      </trkpt>
      <trkpt lat="51.650926927104592" lon="5.172024099156261">
        <ele>-8.59</ele>
        <time>2019-09-08T08:58:50Z</time>
      </trkpt>
      <trkpt lat="51.650899015367031" lon="5.172314364463091">
        <ele>-8.73</ele>
        <time>2019-09-08T08:59:03Z</time>
      </trkpt>
      <trkpt lat="51.650880826637149" lon="5.172464903444052">
        <ele>-8.66</ele>
        <time>2019-09-08T08:59:14Z</time>
      </trkpt>
      <trkpt lat="51.650824081152678" lon="5.172517038881779">
        <ele>-8.66</ele>
        <time>2019-09-08T08:59:19Z</time>
      </trkpt>
      <trkpt lat="51.650579329580069" lon="5.172602869570255">
        <ele>-8.73</ele>
        <time>2019-09-08T08:59:36Z</time>
      </trkpt>
      <trkpt lat="51.650505568832159" lon="5.17262214794755">
        <ele>-8.75</ele>
        <time>2019-09-08T08:59:40Z</time>
      </trkpt>
      <trkpt lat="51.65040691383183" lon="5.172735974192619">
        <ele>-6.52</ele>
        <time>2019-09-08T08:59:49Z</time>
      </trkpt>
      <trkpt lat="51.650387719273567" lon="5.172856589779258">
        <ele>-8.84</ele>
        <time>2019-09-08T08:59:56Z</time>
      </trkpt>
      <trkpt lat="51.65035268291831" lon="5.173029927536845">
        <ele>-8.859999999999999</ele>
        <time>2019-09-08T09:00:02Z</time>
      </trkpt>
      <trkpt lat="51.650290489196777" lon="5.173526806756854">
        <ele>-8.949999999999999</ele>
        <time>2019-09-08T09:00:24Z</time>
      </trkpt>
      <trkpt lat="51.650161240249872" lon="5.174005832523108">
        <ele>-9.029999999999999</ele>
        <time>2019-09-08T09:00:46Z</time>
      </trkpt>
      <trkpt lat="51.649948172271252" lon="5.174464490264654">
        <ele>-9.18</ele>
        <time>2019-09-08T09:01:11Z</time>
      </trkpt>
      <trkpt lat="51.649857982993126" lon="5.175004117190838">
        <ele>-10.02</ele>
        <time>2019-09-08T09:01:33Z</time>
      </trkpt>
      <trkpt lat="51.649888409301639" lon="5.175541648641229">
        <ele>-10.08</ele>
        <time>2019-09-08T09:01:54Z</time>
      </trkpt>
      <trkpt lat="51.649946747347713" lon="5.176186049357057">
        <ele>-10.16</ele>
        <time>2019-09-08T09:02:19Z</time>
      </trkpt>
      <trkpt lat="51.6500423848629" lon="5.176735566928983">
        <ele>-10.199999999999999</ele>
        <time>2019-09-08T09:02:35Z</time>
      </trkpt>
      <trkpt lat="51.650073062628508" lon="5.177154410630465">
        <ele>-10.289999999999999</ele>
        <time>2019-09-08T09:02:41Z</time>
      </trkpt>
      <trkpt lat="51.650063339620829" lon="5.177260274067521">
        <ele>-10.300000000000001</ele>
        <time>2019-09-08T09:02:42Z</time>
      </trkpt>
      <trkpt lat="51.65005755610764" lon="5.177351301535964">
        <ele>-10.31</ele>
        <time>2019-09-08T09:02:43Z</time>
      </trkpt>
      <trkpt lat="51.650049677118659" lon="5.177466301247478">
        <ele>-10.289999999999999</ele>
        <time>2019-09-08T09:02:44Z</time>
      </trkpt>
      <trkpt lat="51.650043139234185" lon="5.177564201876521">
        <ele>-10.289999999999999</ele>
        <time>2019-09-08T09:02:45Z</time>
      </trkpt>
      <trkpt lat="51.650029979646206" lon="5.17765891738236">
        <ele>-10.27</ele>
        <time>2019-09-08T09:02:46Z</time>
      </trkpt>
      <trkpt lat="51.650013970211148" lon="5.177751034498215">
        <ele>-10.27</ele>
        <time>2019-09-08T09:02:47Z</time>
      </trkpt>
      <trkpt lat="51.650005923584104" lon="5.177819598466158">
        <ele>-10.289999999999999</ele>
        <time>2019-09-08T09:02:48Z</time>
      </trkpt>
      <trkpt lat="51.649997625499964" lon="5.178560391068459">
        <ele>-10.210000000000001</ele>
        <time>2019-09-08T09:02:57Z</time>
      </trkpt>
      <trkpt lat="51.649980694055557" lon="5.17868896946311">
        <ele>-10.24</ele>
        <time>2019-09-08T09:02:58Z</time>
      </trkpt>
      <trkpt lat="51.649965774267912" lon="5.179040506482124">
        <ele>-10.25</ele>
        <time>2019-09-08T09:03:02Z</time>
      </trkpt>
      <trkpt lat="51.64993392303586" lon="5.179887749254704">
        <ele>-11.15</ele>
        <time>2019-09-08T09:03:11Z</time>
      </trkpt>
      <trkpt lat="51.649905173107982" lon="5.180217158049345">
        <ele>-11.17</ele>
        <time>2019-09-08T09:03:15Z</time>
      </trkpt>
      <trkpt lat="51.649909447878599" lon="5.180369876325131">
        <ele>-11.199999999999999</ele>
        <time>2019-09-08T09:03:17Z</time>
      </trkpt>
      <trkpt lat="51.649883380159736" lon="5.181363048031926">
        <ele>-11.15</ele>
        <time>2019-09-08T09:03:27Z</time>
      </trkpt>
      <trkpt lat="51.649870052933693" lon="5.181470084935427">
        <ele>-11.16</ele>
        <time>2019-09-08T09:03:28Z</time>
      </trkpt>
      <trkpt lat="51.649850020185113" lon="5.181563543155789">
        <ele>-11.17</ele>
        <time>2019-09-08T09:03:29Z</time>
      </trkpt>
      <trkpt lat="51.649764440953732" lon="5.182322692126036">
        <ele>-11.18</ele>
        <time>2019-09-08T09:03:39Z</time>
      </trkpt>
      <trkpt lat="51.649718089029193" lon="5.182891571894288">
        <ele>-11.18</ele>
        <time>2019-09-08T09:03:46Z</time>
      </trkpt>
      <trkpt lat="51.6496900934726" lon="5.182986287400127">
        <ele>-11.18</ele>
        <time>2019-09-08T09:03:47Z</time>
      </trkpt>
      <trkpt lat="51.64961826056242" lon="5.183297758921981">
        <ele>-11.18</ele>
        <time>2019-09-08T09:03:51Z</time>
      </trkpt>
      <trkpt lat="51.649549528956413" lon="5.183530692011118">
        <ele>-11.140000000000001</ele>
        <time>2019-09-08T09:03:53Z</time>
      </trkpt>
      <trkpt lat="51.649540979415178" lon="5.183622809126973">
        <ele>-11.140000000000001</ele>
        <time>2019-09-08T09:03:54Z</time>
      </trkpt>
      <trkpt lat="51.649554222822189" lon="5.183703443035483">
        <ele>-11.140000000000001</ele>
        <time>2019-09-08T09:03:55Z</time>
      </trkpt>
      <trkpt lat="51.649563359096646" lon="5.18380930647254">
        <ele>-11.130000000000001</ele>
        <time>2019-09-08T09:03:56Z</time>
      </trkpt>
      <trkpt lat="51.649569310247898" lon="5.18390997312963">
        <ele>-11.130000000000001</ele>
        <time>2019-09-08T09:03:57Z</time>
      </trkpt>
      <trkpt lat="51.649586744606495" lon="5.18397250212729">
        <ele>-11.130000000000001</ele>
        <time>2019-09-08T09:03:58Z</time>
      </trkpt>
      <trkpt lat="51.649819929152727" lon="5.184728549793363">
        <ele>-11.07</ele>
        <time>2019-09-08T09:04:08Z</time>
      </trkpt>
      <trkpt lat="51.649835519492626" lon="5.184823432937264">
        <ele>-11.08</ele>
        <time>2019-09-08T09:04:09Z</time>
      </trkpt>
      <trkpt lat="51.649857899174094" lon="5.184923177585006">
        <ele>-11.08</ele>
        <time>2019-09-08T09:04:10Z</time>
      </trkpt>
      <trkpt lat="51.649877931922674" lon="5.185014624148607">
        <ele>-11.07</ele>
        <time>2019-09-08T09:04:11Z</time>
      </trkpt>
      <trkpt lat="51.649891845881939" lon="5.185099029913545">
        <ele>-11.06</ele>
        <time>2019-09-08T09:04:12Z</time>
      </trkpt>
      <trkpt lat="51.649912884458899" lon="5.18517748452723">
        <ele>-11.029999999999999</ele>
        <time>2019-09-08T09:04:13Z</time>
      </trkpt>
      <trkpt lat="51.649939706549048" lon="5.185250239446759">
        <ele>-11.02</ele>
        <time>2019-09-08T09:04:14Z</time>
      </trkpt>
      <trkpt lat="51.649965606629848" lon="5.185334980487824">
        <ele>-11.029999999999999</ele>
        <time>2019-09-08T09:04:15Z</time>
      </trkpt>
      <trkpt lat="51.649990417063236" lon="5.185422487556934">
        <ele>-11.02</ele>
        <time>2019-09-08T09:04:16Z</time>
      </trkpt>
      <trkpt lat="51.650079181417823" lon="5.185820292681456">
        <ele>-10.98</ele>
        <time>2019-09-08T09:04:20Z</time>
      </trkpt>
      <trkpt lat="51.650273473933339" lon="5.187069866806269">
        <ele>-10.77</ele>
        <time>2019-09-08T09:04:31Z</time>
      </trkpt>
      <trkpt lat="51.65037028491497" lon="5.187700185924768">
        <ele>-10.6</ele>
        <time>2019-09-08T09:04:41Z</time>
      </trkpt>
      <trkpt lat="51.650537671521306" lon="5.188944227993488">
        <ele>-10.25</ele>
        <time>2019-09-08T09:05:07Z</time>
      </trkpt>
      <trkpt lat="51.650539766997099" lon="5.188973816111684">
        <ele>-10.24</ele>
        <time>2019-09-08T09:05:08Z</time>
      </trkpt>
      <trkpt lat="51.650535743683577" lon="5.189031986519694">
        <ele>-10.220000000000001</ele>
        <time>2019-09-08T09:05:09Z</time>
      </trkpt>
      <trkpt lat="51.650535576045513" lon="5.189088145270944">
        <ele>-10.210000000000001</ele>
        <time>2019-09-08T09:05:10Z</time>
      </trkpt>
      <trkpt lat="51.650549154728651" lon="5.189181519672275">
        <ele>-10.19</ele>
        <time>2019-09-08T09:05:12Z</time>
      </trkpt>
      <trkpt lat="51.650534067302942" lon="5.189614612609148">
        <ele>-10.02</ele>
        <time>2019-09-08T09:05:25Z</time>
      </trkpt>
      <trkpt lat="51.650535576045513" lon="5.189664904028177">
        <ele>-10.02</ele>
        <time>2019-09-08T09:05:26Z</time>
      </trkpt>
      <trkpt lat="51.650591231882572" lon="5.190234035253525">
        <ele>-9.83</ele>
        <time>2019-09-08T09:05:47Z</time>
      </trkpt>
      <trkpt lat="51.650638421997428" lon="5.19082261249423">
        <ele>-9.699999999999999</ele>
        <time>2019-09-08T09:06:10Z</time>
      </trkpt>
      <trkpt lat="51.650692569091916" lon="5.191263584420085">
        <ele>-9.539999999999999</ele>
        <time>2019-09-08T09:06:31Z</time>
      </trkpt>
      <trkpt lat="51.650756020098925" lon="5.191797846928239">
        <ele>-9.460000000000001</ele>
        <time>2019-09-08T09:06:54Z</time>
      </trkpt>
      <trkpt lat="51.650801198557019" lon="5.192313501611352">
        <ele>-9.359999999999999</ele>
        <time>2019-09-08T09:07:15Z</time>
      </trkpt>
      <trkpt lat="51.650900607928634" lon="5.193264931440353">
        <ele>-9.119999999999999</ele>
        <time>2019-09-08T09:07:59Z</time>
      </trkpt>
      <trkpt lat="51.650883173570037" lon="5.193697772920132">
        <ele>-9.060000000000001</ele>
        <time>2019-09-08T09:08:17Z</time>
      </trkpt>
      <trkpt lat="51.650924412533641" lon="5.194097505882382">
        <ele>-8.970000000000001</ele>
        <time>2019-09-08T09:08:32Z</time>
      </trkpt>
      <trkpt lat="51.651002028957009" lon="5.194409312680364">
        <ele>-8.9</ele>
        <time>2019-09-08T09:08:47Z</time>
      </trkpt>
      <trkpt lat="51.651013009250164" lon="5.194460693746805">
        <ele>-8.880000000000001</ele>
        <time>2019-09-08T09:08:50Z</time>
      </trkpt>
      <trkpt lat="51.651019211858511" lon="5.194482738152146">
        <ele>-8.880000000000001</ele>
        <time>2019-09-08T09:08:51Z</time>
      </trkpt>
      <trkpt lat="51.651021474972367" lon="5.194510063156486">
        <ele>-8.880000000000001</ele>
        <time>2019-09-08T09:08:52Z</time>
      </trkpt>
      <trkpt lat="51.651049805805087" lon="5.194718688726425">
        <ele>-8.85</ele>
        <time>2019-09-08T09:09:02Z</time>
      </trkpt>
      <trkpt lat="51.651103282347322" lon="5.195095539093018">
        <ele>-8.800000000000001</ele>
        <time>2019-09-08T09:09:17Z</time>
      </trkpt>
      <trkpt lat="51.651109736412764" lon="5.195113979279995">
        <ele>-8.789999999999999</ele>
        <time>2019-09-08T09:09:18Z</time>
      </trkpt>
      <trkpt lat="51.651116609573364" lon="5.195132251828909">
        <ele>-8.789999999999999</ele>
        <time>2019-09-08T09:09:19Z</time>
      </trkpt>
      <trkpt lat="51.651121554896235" lon="5.195155302062631">
        <ele>-8.789999999999999</ele>
        <time>2019-09-08T09:09:20Z</time>
      </trkpt>
      <trkpt lat="51.651128260418773" lon="5.195177095010877">
        <ele>-8.779999999999999</ele>
        <time>2019-09-08T09:09:21Z</time>
      </trkpt>
      <trkpt lat="51.651132619008422" lon="5.19520215690136">
        <ele>-8.779999999999999</ele>
        <time>2019-09-08T09:09:22Z</time>
      </trkpt>
      <trkpt lat="51.651135385036469" lon="5.195229733362794">
        <ele>-8.77</ele>
        <time>2019-09-08T09:09:23Z</time>
      </trkpt>
      <trkpt lat="51.65115206502378" lon="5.195457385852933">
        <ele>-8.73</ele>
        <time>2019-09-08T09:09:32Z</time>
      </trkpt>
      <trkpt lat="51.651158099994063" lon="5.195475658401847">
        <ele>-8.73</ele>
        <time>2019-09-08T09:09:33Z</time>
      </trkpt>
      <trkpt lat="51.651201937347651" lon="5.195673974230886">
        <ele>-8.69</ele>
        <time>2019-09-08T09:09:41Z</time>
      </trkpt>
      <trkpt lat="51.651206882670522" lon="5.195701634511352">
        <ele>-8.68</ele>
        <time>2019-09-08T09:09:42Z</time>
      </trkpt>
      <trkpt lat="51.651213588193059" lon="5.195725858211517">
        <ele>-8.69</ele>
        <time>2019-09-08T09:09:43Z</time>
      </trkpt>
      <trkpt lat="51.651230435818434" lon="5.195766342803836">
        <ele>-8.69</ele>
        <time>2019-09-08T09:09:45Z</time>
      </trkpt>
      <trkpt lat="51.651237392798066" lon="5.195790063589811">
        <ele>-8.68</ele>
        <time>2019-09-08T09:09:46Z</time>
      </trkpt>
      <trkpt lat="51.651263041421771" lon="5.195880336686969">
        <ele>-8.66</ele>
        <time>2019-09-08T09:09:50Z</time>
      </trkpt>
      <trkpt lat="51.651270082220435" lon="5.195902045816183">
        <ele>-8.66</ele>
        <time>2019-09-08T09:09:51Z</time>
      </trkpt>
      <trkpt lat="51.651276620104909" lon="5.195923419669271">
        <ele>-8.66</ele>
        <time>2019-09-08T09:09:52Z</time>
      </trkpt>
      <trkpt lat="51.6512805595994" lon="5.195945044979453">
        <ele>-8.66</ele>
        <time>2019-09-08T09:09:53Z</time>
      </trkpt>
      <trkpt lat="51.651327414438128" lon="5.196221228688955">
        <ele>-8.630000000000001</ele>
        <time>2019-09-08T09:10:06Z</time>
      </trkpt>
      <trkpt lat="51.651451550424099" lon="5.196602940559387">
        <ele>-8.619999999999999</ele>
        <time>2019-09-08T09:10:26Z</time>
      </trkpt>
      <trkpt lat="51.65168029256165" lon="5.197845222428441">
        <ele>-8.550000000000001</ele>
        <time>2019-09-08T09:11:18Z</time>
      </trkpt>
      <trkpt lat="51.651685405522585" lon="5.197873637080193">
        <ele>-8.539999999999999</ele>
        <time>2019-09-08T09:11:19Z</time>
      </trkpt>
      <trkpt lat="51.651696721091866" lon="5.198039263486862">
        <ele>-8.539999999999999</ele>
        <time>2019-09-08T09:11:24Z</time>
      </trkpt>
      <trkpt lat="51.651748521253467" lon="5.198397003114224">
        <ele>-8.52</ele>
        <time>2019-09-08T09:11:42Z</time>
      </trkpt>
      <trkpt lat="51.651768051087856" lon="5.198871167376638">
        <ele>-8.449999999999999</ele>
        <time>2019-09-08T09:12:03Z</time>
      </trkpt>
      <trkpt lat="51.651830160990357" lon="5.199423870071769">
        <ele>-8.529999999999999</ele>
        <time>2019-09-08T09:12:25Z</time>
      </trkpt>
      <trkpt lat="51.651889001950622" lon="5.199908846989274">
        <ele>-8.630000000000001</ele>
        <time>2019-09-08T09:12:46Z</time>
      </trkpt>
      <trkpt lat="51.651955470442772" lon="5.200276225805283">
        <ele>-8.74</ele>
        <time>2019-09-08T09:13:02Z</time>
      </trkpt>
      <trkpt lat="51.652019340544939" lon="5.200881231576204">
        <ele>-8.94</ele>
        <time>2019-09-08T09:13:27Z</time>
      </trkpt>
      <trkpt lat="51.652050018310547" lon="5.200982987880707">
        <ele>-9</ele>
        <time>2019-09-08T09:13:32Z</time>
      </trkpt>
      <trkpt lat="51.652056891471148" lon="5.201010061427951">
        <ele>-9.01</ele>
        <time>2019-09-08T09:13:33Z</time>
      </trkpt>
      <trkpt lat="51.652145655825734" lon="5.201486404985189">
        <ele>-9.220000000000001</ele>
        <time>2019-09-08T09:13:55Z</time>
      </trkpt>
      <trkpt lat="51.652178429067135" lon="5.201690588146448">
        <ele>-9.33</ele>
        <time>2019-09-08T09:14:05Z</time>
      </trkpt>
      <trkpt lat="51.652187397703528" lon="5.201682625338435">
        <ele>-9.35</ele>
        <time>2019-09-08T09:14:06Z</time>
      </trkpt>
      <trkpt lat="51.652232659980655" lon="5.201617078855634">
        <ele>-9.41</ele>
        <time>2019-09-08T09:14:11Z</time>
      </trkpt>
      <trkpt lat="51.652269791811705" lon="5.201597800478339">
        <ele>-9.44</ele>
        <time>2019-09-08T09:14:14Z</time>
      </trkpt>
      <trkpt lat="51.652399376034737" lon="5.201422870159149">
        <ele>-9.6</ele>
        <time>2019-09-08T09:14:27Z</time>
      </trkpt>
      <trkpt lat="51.652472633868456" lon="5.201319772750139">
        <ele>-9.69</ele>
        <time>2019-09-08T09:14:34Z</time>
      </trkpt>
      <trkpt lat="51.652661645784974" lon="5.201085498556495">
        <ele>-9.810000000000001</ele>
        <time>2019-09-08T09:14:48Z</time>
      </trkpt>
      <trkpt lat="51.652709757909179" lon="5.201013665646315">
        <ele>-9.880000000000001</ele>
        <time>2019-09-08T09:14:52Z</time>
      </trkpt>
      <trkpt lat="51.652722582221031" lon="5.200989609584212">
        <ele>-9.9</ele>
        <time>2019-09-08T09:14:53Z</time>
      </trkpt>
      <trkpt lat="51.65281000547111" lon="5.200738739222288">
        <ele>-10</ele>
        <time>2019-09-08T09:15:03Z</time>
      </trkpt>
      <trkpt lat="51.652826936915517" lon="5.200692135840654">
        <ele>-10.050000000000001</ele>
        <time>2019-09-08T09:15:05Z</time>
      </trkpt>
      <trkpt lat="51.652857279404998" lon="5.200594821944833">
        <ele>-10.07</ele>
        <time>2019-09-08T09:15:10Z</time>
      </trkpt>
      <trkpt lat="51.652861973270774" lon="5.200570346787572">
        <ele>-10.109999999999999</ele>
        <time>2019-09-08T09:15:11Z</time>
      </trkpt>
      <trkpt lat="51.652867086231709" lon="5.200534723699093">
        <ele>-10.1</ele>
        <time>2019-09-08T09:15:13Z</time>
      </trkpt>
      <trkpt lat="51.652925759553909" lon="5.200469512492418">
        <ele>-10.130000000000001</ele>
        <time>2019-09-08T09:15:17Z</time>
      </trkpt>
      <trkpt lat="51.6529262624681" lon="5.200444953516126">
        <ele>-10.140000000000001</ele>
        <time>2019-09-08T09:15:18Z</time>
      </trkpt>
      <trkpt lat="51.65294093079865" lon="5.200404804199934">
        <ele>-10.15</ele>
        <time>2019-09-08T09:15:20Z</time>
      </trkpt>
      <trkpt lat="51.652938416227698" lon="5.200383178889751">
        <ele>-10.15</ele>
        <time>2019-09-08T09:15:21Z</time>
      </trkpt>
      <trkpt lat="51.653014691546559" lon="5.200221491977572">
        <ele>-10.220000000000001</ele>
        <time>2019-09-08T09:15:31Z</time>
      </trkpt>
      <trkpt lat="51.653087278828025" lon="5.199954612180591">
        <ele>-10.31</ele>
        <time>2019-09-08T09:15:44Z</time>
      </trkpt>
      <trkpt lat="51.653146538883448" lon="5.199798289686441">
        <ele>-10.33</ele>
        <time>2019-09-08T09:15:52Z</time>
      </trkpt>
      <trkpt lat="51.653766296803951" lon="5.198558773845434">
        <ele>-10.75</ele>
        <time>2019-09-08T09:17:02Z</time>
      </trkpt>
      <trkpt lat="51.653927816078067" lon="5.19858836196363">
        <ele>-10.81</ele>
        <time>2019-09-08T09:17:15Z</time>
      </trkpt>
      <trkpt lat="51.653959583491087" lon="5.198576040565968">
        <ele>-10.82</ele>
        <time>2019-09-08T09:17:17Z</time>
      </trkpt>
      <trkpt lat="51.654081624001265" lon="5.198604036122561">
        <ele>-10.85</ele>
        <time>2019-09-08T09:17:25Z</time>
      </trkpt>
      <trkpt lat="51.654098471626639" lon="5.198615603148937">
        <ele>-10.859999999999999</ele>
        <time>2019-09-08T09:17:26Z</time>
      </trkpt>
      <trkpt lat="51.654361328110099" lon="5.198869407176971">
        <ele>-10.949999999999999</ele>
        <time>2019-09-08T09:17:43Z</time>
      </trkpt>
      <trkpt lat="51.654421091079712" lon="5.198957668617368">
        <ele>-10.970000000000001</ele>
        <time>2019-09-08T09:17:48Z</time>
      </trkpt>
      <trkpt lat="51.654436597600579" lon="5.198961524292827">
        <ele>-10.960000000000001</ele>
        <time>2019-09-08T09:17:49Z</time>
      </trkpt>
      <trkpt lat="51.654453445225954" lon="5.198969151824713">
        <ele>-10.970000000000001</ele>
        <time>2019-09-08T09:17:50Z</time>
      </trkpt>
      <trkpt lat="51.654466520994902" lon="5.198976276442409">
        <ele>-10.960000000000001</ele>
        <time>2019-09-08T09:17:51Z</time>
      </trkpt>
      <trkpt lat="51.654479596763849" lon="5.198985664173961">
        <ele>-10.960000000000001</ele>
        <time>2019-09-08T09:17:52Z</time>
      </trkpt>
      <trkpt lat="51.65461546741426" lon="5.198822971433401">
        <ele>-10.99</ele>
        <time>2019-09-08T09:18:03Z</time>
      </trkpt>
      <trkpt lat="51.654635332524776" lon="5.198783241212368">
        <ele>-11</ele>
        <time>2019-09-08T09:18:05Z</time>
      </trkpt>
      <trkpt lat="51.654649581760168" lon="5.198765052482486">
        <ele>-11</ele>
        <time>2019-09-08T09:18:06Z</time>
      </trkpt>
      <trkpt lat="51.654659807682037" lon="5.198747534304857">
        <ele>-11</ele>
        <time>2019-09-08T09:18:07Z</time>
      </trkpt>
      <trkpt lat="51.654682019725442" lon="5.198693722486496">
        <ele>-10.99</ele>
        <time>2019-09-08T09:18:10Z</time>
      </trkpt>
      <trkpt lat="51.654689228162169" lon="5.198672600090504">
        <ele>-11.01</ele>
        <time>2019-09-08T09:18:11Z</time>
      </trkpt>
      <trkpt lat="51.654700711369514" lon="5.19865432754159">
        <ele>-11.02</ele>
        <time>2019-09-08T09:18:12Z</time>
      </trkpt>
      <trkpt lat="51.654759468510747" lon="5.198631947860122">
        <ele>-11.01</ele>
        <time>2019-09-08T09:18:18Z</time>
      </trkpt>
      <trkpt lat="51.654769778251648" lon="5.198622811585665">
        <ele>-11</ele>
        <time>2019-09-08T09:18:19Z</time>
      </trkpt>
      <trkpt lat="51.654980750754476" lon="5.198533376678824">
        <ele>-11.01</ele>
        <time>2019-09-08T09:18:33Z</time>
      </trkpt>
      <trkpt lat="51.655107401311398" lon="5.198481157422066">
        <ele>-10.98</ele>
        <time>2019-09-08T09:18:44Z</time>
      </trkpt>
      <trkpt lat="51.655204463750124" lon="5.198384178802371">
        <ele>-10.970000000000001</ele>
        <time>2019-09-08T09:18:54Z</time>
      </trkpt>
      <trkpt lat="51.655269088223577" lon="5.198379820212722">
        <ele>-11.75</ele>
        <time>2019-09-08T09:19:01Z</time>
      </trkpt>
      <trkpt lat="51.655356679111719" lon="5.198411419987679">
        <ele>-11.720000000000001</ele>
        <time>2019-09-08T09:19:06Z</time>
      </trkpt>
      <trkpt lat="51.655601933598518" lon="5.198732865974307">
        <ele>-11.75</ele>
        <time>2019-09-08T09:19:26Z</time>
      </trkpt>
      <trkpt lat="51.655892366543412" lon="5.199103513732553">
        <ele>-11.720000000000001</ele>
        <time>2019-09-08T09:19:51Z</time>
      </trkpt>
      <trkpt lat="51.655944418162107" lon="5.199169479310513">
        <ele>-11.73</ele>
        <time>2019-09-08T09:19:55Z</time>
      </trkpt>
      <trkpt lat="51.656074589118361" lon="5.199323706328869">
        <ele>-11.75</ele>
        <time>2019-09-08T09:20:06Z</time>
      </trkpt>
      <trkpt lat="51.656123790889978" lon="5.1993946172297">
        <ele>-11.76</ele>
        <time>2019-09-08T09:20:12Z</time>
      </trkpt>
      <trkpt lat="51.656200066208839" lon="5.199572397395968">
        <ele>-11.789999999999999</ele>
        <time>2019-09-08T09:20:21Z</time>
      </trkpt>
      <trkpt lat="51.656326800584793" lon="5.199829805642366">
        <ele>-9.35</ele>
        <time>2019-09-08T09:20:32Z</time>
      </trkpt>
      <trkpt lat="51.656454205513" lon="5.200156532227993">
        <ele>-9.42</ele>
        <time>2019-09-08T09:20:47Z</time>
      </trkpt>
      <trkpt lat="51.656584041193128" lon="5.20048719830811">
        <ele>-9.449999999999999</ele>
        <time>2019-09-08T09:21:02Z</time>
      </trkpt>
      <trkpt lat="51.656724773347378" lon="5.200817864388228">
        <ele>-9.42</ele>
        <time>2019-09-08T09:21:18Z</time>
      </trkpt>
      <trkpt lat="51.656760731711984" lon="5.200903359800577">
        <ele>-9.42</ele>
        <time>2019-09-08T09:21:23Z</time>
      </trkpt>
      <trkpt lat="51.656808089464903" lon="5.201040906831622">
        <ele>-9.41</ele>
        <time>2019-09-08T09:21:30Z</time>
      </trkpt>
      <trkpt lat="51.656882604584098" lon="5.201144255697727">
        <ele>-9.4</ele>
        <time>2019-09-08T09:21:37Z</time>
      </trkpt>
      <trkpt lat="51.656972207129002" lon="5.201161606237292">
        <ele>-8.6</ele>
        <time>2019-09-08T09:21:45Z</time>
      </trkpt>
      <trkpt lat="51.65707572363317" lon="5.201148027554154">
        <ele>-8.65</ele>
        <time>2019-09-08T09:21:56Z</time>
      </trkpt>
      <trkpt lat="51.657279571518302" lon="5.2015221118927">
        <ele>-8.609999999999999</ele>
        <time>2019-09-08T09:22:17Z</time>
      </trkpt>
      <trkpt lat="51.657318798825145" lon="5.201638285070658">
        <ele>-8.619999999999999</ele>
        <time>2019-09-08T09:22:23Z</time>
      </trkpt>
      <trkpt lat="51.657398175448179" lon="5.201828135177493">
        <ele>-8.67</ele>
        <time>2019-09-08T09:22:31Z</time>
      </trkpt>
      <trkpt lat="51.65741141885519" lon="5.20187197253108">
        <ele>-8.67</ele>
        <time>2019-09-08T09:22:32Z</time>
      </trkpt>
      <trkpt lat="51.657426422461867" lon="5.201905919238925">
        <ele>-8.69</ele>
        <time>2019-09-08T09:22:33Z</time>
      </trkpt>
      <trkpt lat="51.657436061650515" lon="5.201938860118389">
        <ele>-8.69</ele>
        <time>2019-09-08T09:22:34Z</time>
      </trkpt>
      <trkpt lat="51.657503619790077" lon="5.202203644439578">
        <ele>-8.720000000000001</ele>
        <time>2019-09-08T09:22:46Z</time>
      </trkpt>
      <trkpt lat="51.657507307827473" lon="5.202267011627555">
        <ele>-11.109999999999999</ele>
        <time>2019-09-08T09:22:49Z</time>
      </trkpt>
      <trkpt lat="51.657511414960027" lon="5.202291989699006">
        <ele>-11.119999999999999</ele>
        <time>2019-09-08T09:22:50Z</time>
      </trkpt>
      <trkpt lat="51.657579224556684" lon="5.202469350770116">
        <ele>-11.17</ele>
        <time>2019-09-08T09:23:00Z</time>
      </trkpt>
      <trkpt lat="51.657615937292576" lon="5.202521402388811">
        <ele>-11.19</ele>
        <time>2019-09-08T09:23:04Z</time>
      </trkpt>
      <trkpt lat="51.657674107700586" lon="5.202645622193813">
        <ele>-11.23</ele>
        <time>2019-09-08T09:23:11Z</time>
      </trkpt>
      <trkpt lat="51.657713418826461" lon="5.202741846442223">
        <ele>-11.26</ele>
        <time>2019-09-08T09:23:15Z</time>
      </trkpt>
      <trkpt lat="51.657718028873205" lon="5.202799094840884">
        <ele>-11.289999999999999</ele>
        <time>2019-09-08T09:23:18Z</time>
      </trkpt>
      <trkpt lat="51.657742420211434" lon="5.20292591303587">
        <ele>-11.42</ele>
        <time>2019-09-08T09:23:32Z</time>
      </trkpt>
      <trkpt lat="51.657775193452835" lon="5.202948292717338">
        <ele>-11.48</ele>
        <time>2019-09-08T09:23:38Z</time>
      </trkpt>
      <trkpt lat="51.657837135717273" lon="5.202942006289959">
        <ele>-11.58</ele>
        <time>2019-09-08T09:23:48Z</time>
      </trkpt>
      <trkpt lat="51.657897150143981" lon="5.20282038487494">
        <ele>-11.65</ele>
        <time>2019-09-08T09:23:57Z</time>
      </trkpt>
      <trkpt lat="51.657976442947984" lon="5.202697422355413">
        <ele>-11.73</ele>
        <time>2019-09-08T09:24:10Z</time>
      </trkpt>
      <trkpt lat="51.658155061304569" lon="5.202878387644887">
        <ele>-11.84</ele>
        <time>2019-09-08T09:24:28Z</time>
      </trkpt>
      <trkpt lat="51.658240556716919" lon="5.203130599111319">
        <ele>-11.91</ele>
        <time>2019-09-08T09:24:40Z</time>
      </trkpt>
      <trkpt lat="51.658258158713579" lon="5.203356239944696">
        <ele>-12.01</ele>
        <time>2019-09-08T09:24:54Z</time>
      </trkpt>
      <trkpt lat="51.658315574750304" lon="5.203343247994781">
        <ele>-12.08</ele>
        <time>2019-09-08T09:25:02Z</time>
      </trkpt>
      <trkpt lat="51.65856309235096" lon="5.203256495296955">
        <ele>-12.25</ele>
        <time>2019-09-08T09:25:23Z</time>
      </trkpt>
      <trkpt lat="51.658656047657132" lon="5.203220704570413">
        <ele>-12.32</ele>
        <time>2019-09-08T09:25:31Z</time>
      </trkpt>
      <trkpt lat="51.658890321850777" lon="5.203195391222835">
        <ele>-12.470000000000001</ele>
        <time>2019-09-08T09:25:48Z</time>
      </trkpt>
      <trkpt lat="51.658941451460123" lon="5.20318784750998">
        <ele>-12.5</ele>
        <time>2019-09-08T09:25:51Z</time>
      </trkpt>
      <trkpt lat="51.659172456711531" lon="5.203140322118998">
        <ele>-12.59</ele>
        <time>2019-09-08T09:26:03Z</time>
      </trkpt>
      <trkpt lat="51.659405138343573" lon="5.20312137901783">
        <ele>-12.699999999999999</ele>
        <time>2019-09-08T09:26:19Z</time>
      </trkpt>
      <trkpt lat="51.659618876874447" lon="5.203126827254891">
        <ele>-12.779999999999999</ele>
        <time>2019-09-08T09:26:34Z</time>
      </trkpt>
      <trkpt lat="51.659781150519848" lon="5.203127162531018">
        <ele>-12.859999999999999</ele>
        <time>2019-09-08T09:26:48Z</time>
      </trkpt>
      <trkpt lat="51.659894976764917" lon="5.203098999336362">
        <ele>-12.9</ele>
        <time>2019-09-08T09:26:55Z</time>
      </trkpt>
      <trkpt lat="51.659955494105816" lon="5.203093299642205">
        <ele>-12.92</ele>
        <time>2019-09-08T09:26:58Z</time>
      </trkpt>
      <trkpt lat="51.660105865448713" lon="5.203045019879937">
        <ele>-13</ele>
        <time>2019-09-08T09:27:12Z</time>
      </trkpt>
      <trkpt lat="51.660231342539191" lon="5.203028172254562">
        <ele>-13.83</ele>
        <time>2019-09-08T09:27:24Z</time>
      </trkpt>
      <trkpt lat="51.660232683643699" lon="5.203029178082943">
        <ele>-13.85</ele>
        <time>2019-09-08T09:27:26Z</time>
      </trkpt>
      <trkpt lat="51.660303846001625" lon="5.203046025708318">
        <ele>-13.9</ele>
        <time>2019-09-08T09:27:33Z</time>
      </trkpt>
      <trkpt lat="51.660509286448359" lon="5.20301048643887">
        <ele>-13.99</ele>
        <time>2019-09-08T09:27:44Z</time>
      </trkpt>
      <trkpt lat="51.660546250641346" lon="5.2030158508569">
        <ele>-14.01</ele>
        <time>2019-09-08T09:27:46Z</time>
      </trkpt>
      <trkpt lat="51.660619676113129" lon="5.202992130070925">
        <ele>-14.029999999999999</ele>
        <time>2019-09-08T09:27:49Z</time>
      </trkpt>
      <trkpt lat="51.660646749660373" lon="5.202978635206819">
        <ele>-14.039999999999999</ele>
        <time>2019-09-08T09:27:50Z</time>
      </trkpt>
      <trkpt lat="51.660685976967216" lon="5.202970001846552">
        <ele>-14.050000000000001</ele>
        <time>2019-09-08T09:27:51Z</time>
      </trkpt>
      <trkpt lat="51.660714894533157" lon="5.20296455360949">
        <ele>-14.050000000000001</ele>
        <time>2019-09-08T09:27:52Z</time>
      </trkpt>
      <trkpt lat="51.660743560642004" lon="5.202961452305317">
        <ele>-14.06</ele>
        <time>2019-09-08T09:27:53Z</time>
      </trkpt>
      <trkpt lat="51.660779267549515" lon="5.202952735126019">
        <ele>-14.07</ele>
        <time>2019-09-08T09:27:54Z</time>
      </trkpt>
      <trkpt lat="51.661109682172537" lon="5.20289565436542">
        <ele>-14.130000000000001</ele>
        <time>2019-09-08T09:28:06Z</time>
      </trkpt>
      <trkpt lat="51.661358373239636" lon="5.202862294390798">
        <ele>-14.19</ele>
        <time>2019-09-08T09:28:16Z</time>
      </trkpt>
      <trkpt lat="51.661675544455647" lon="5.20282675512135">
        <ele>-14.970000000000001</ele>
        <time>2019-09-08T09:28:25Z</time>
      </trkpt>
      <trkpt lat="51.662174686789513" lon="5.202822145074606">
        <ele>-14.99</ele>
        <time>2019-09-08T09:28:38Z</time>
      </trkpt>
      <trkpt lat="51.662598978728056" lon="5.20279691554606">
        <ele>-14.93</ele>
        <time>2019-09-08T09:28:50Z</time>
      </trkpt>
      <trkpt lat="51.663029892370105" lon="5.202741343528032">
        <ele>-12.710000000000001</ele>
        <time>2019-09-08T09:29:01Z</time>
      </trkpt>
      <trkpt lat="51.663099126890302" lon="5.202733045443893">
        <ele>-15.15</ele>
        <time>2019-09-08T09:29:03Z</time>
      </trkpt>
      <trkpt lat="51.66353733278811" lon="5.202706893905997">
        <ele>-15.08</ele>
        <time>2019-09-08T09:29:13Z</time>
      </trkpt>
      <trkpt lat="51.663922565057874" lon="5.202647717669606">
        <ele>-13.83</ele>
        <time>2019-09-08T09:29:25Z</time>
      </trkpt>
      <trkpt lat="51.664154911413789" lon="5.202573956921697">
        <ele>-13.83</ele>
        <time>2019-09-08T09:29:33Z</time>
      </trkpt>
      <trkpt lat="51.664487421512604" lon="5.202509080991149">
        <ele>-17.460000000000001</ele>
        <time>2019-09-08T09:29:44Z</time>
      </trkpt>
      <trkpt lat="51.664867205545306" lon="5.202476475387812">
        <ele>-14.81</ele>
        <time>2019-09-08T09:29:56Z</time>
      </trkpt>
      <trkpt lat="51.665446227416396" lon="5.202446384355426">
        <ele>-14.720000000000001</ele>
        <time>2019-09-08T09:30:11Z</time>
      </trkpt>
      <trkpt lat="51.665752837434411" lon="5.202413778752089">
        <ele>-14.640000000000001</ele>
        <time>2019-09-08T09:30:23Z</time>
      </trkpt>
      <trkpt lat="51.666079228743911" lon="5.202367259189487">
        <ele>-13.029999999999999</ele>
        <time>2019-09-08T09:30:35Z</time>
      </trkpt>
      <trkpt lat="51.666111331433058" lon="5.202360553666949">
        <ele>-13.02</ele>
        <time>2019-09-08T09:30:36Z</time>
      </trkpt>
      <trkpt lat="51.666482565924525" lon="5.202325517311692">
        <ele>-15.210000000000001</ele>
        <time>2019-09-08T09:30:49Z</time>
      </trkpt>
      <trkpt lat="51.666820691898465" lon="5.202272208407521">
        <ele>-15.109999999999999</ele>
        <time>2019-09-08T09:31:01Z</time>
      </trkpt>
      <trkpt lat="51.666844664141536" lon="5.202273046597838">
        <ele>-15.1</ele>
        <time>2019-09-08T09:31:02Z</time>
      </trkpt>
      <trkpt lat="51.6668741684407" lon="5.202268017455936">
        <ele>-15.09</ele>
        <time>2019-09-08T09:31:03Z</time>
      </trkpt>
      <trkpt lat="51.667215060442686" lon="5.202219402417541">
        <ele>-15.01</ele>
        <time>2019-09-08T09:31:14Z</time>
      </trkpt>
      <trkpt lat="51.667624516412616" lon="5.202130135148764">
        <ele>-12.890000000000001</ele>
        <time>2019-09-08T09:31:28Z</time>
      </trkpt>
      <trkpt lat="51.667996756732464" lon="5.202088393270969">
        <ele>-12.82</ele>
        <time>2019-09-08T09:31:40Z</time>
      </trkpt>
      <trkpt lat="51.66823597624898" lon="5.202052434906364">
        <ele>-12.73</ele>
        <time>2019-09-08T09:31:51Z</time>
      </trkpt>
      <trkpt lat="51.66858877055347" lon="5.20198286511004">
        <ele>-12.68</ele>
        <time>2019-09-08T09:32:03Z</time>
      </trkpt>
      <trkpt lat="51.668720534071326" lon="5.20196576602757">
        <ele>-12.65</ele>
        <time>2019-09-08T09:32:10Z</time>
      </trkpt>
      <trkpt lat="51.668741991743445" lon="5.20195160061121">
        <ele>-12.65</ele>
        <time>2019-09-08T09:32:11Z</time>
      </trkpt>
      <trkpt lat="51.668754564598203" lon="5.201936848461628">
        <ele>-12.640000000000001</ele>
        <time>2019-09-08T09:32:12Z</time>
      </trkpt>
      <trkpt lat="51.668826481327415" lon="5.201748423278332">
        <ele>-12.58</ele>
        <time>2019-09-08T09:32:24Z</time>
      </trkpt>
      <trkpt lat="51.668829079717398" lon="5.201539797708392">
        <ele>-12.56</ele>
        <time>2019-09-08T09:32:32Z</time>
      </trkpt>
      <trkpt lat="51.668832097202539" lon="5.201517418026924">
        <ele>-12.550000000000001</ele>
        <time>2019-09-08T09:32:33Z</time>
      </trkpt>
      <trkpt lat="51.66881357319653" lon="5.201195552945137">
        <ele>-12.48</ele>
        <time>2019-09-08T09:32:45Z</time>
      </trkpt>
      <trkpt lat="51.668812148272991" lon="5.201170491054654">
        <ele>-12.48</ele>
        <time>2019-09-08T09:32:46Z</time>
      </trkpt>
      <trkpt lat="51.668800413608551" lon="5.200848123058677">
        <ele>-12.41</ele>
        <time>2019-09-08T09:33:00Z</time>
      </trkpt>
      <trkpt lat="51.668807286769152" lon="5.200351746752858">
        <ele>-12.31</ele>
        <time>2019-09-08T09:33:22Z</time>
      </trkpt>
      <trkpt lat="51.66882673278451" lon="5.20026583224535">
        <ele>-12.289999999999999</ele>
        <time>2019-09-08T09:33:26Z</time>
      </trkpt>
      <trkpt lat="51.668825894594193" lon="5.200240099802613">
        <ele>-12.289999999999999</ele>
        <time>2019-09-08T09:33:27Z</time>
      </trkpt>
      <trkpt lat="51.668831342831254" lon="5.200160890817642">
        <ele>-12.279999999999999</ele>
        <time>2019-09-08T09:33:30Z</time>
      </trkpt>
      <trkpt lat="51.668826313689351" lon="5.200135493651032">
        <ele>-12.27</ele>
        <time>2019-09-08T09:33:31Z</time>
      </trkpt>
      <trkpt lat="51.668817345052958" lon="5.200111605226994">
        <ele>-12.26</ele>
        <time>2019-09-08T09:33:32Z</time>
      </trkpt>
      <trkpt lat="51.668808963149786" lon="5.200083609670401">
        <ele>-12.26</ele>
        <time>2019-09-08T09:33:33Z</time>
      </trkpt>
      <trkpt lat="51.668803011998534" lon="5.200057625770569">
        <ele>-12.26</ele>
        <time>2019-09-08T09:33:34Z</time>
      </trkpt>
      <trkpt lat="51.668790858238935" lon="5.198572520166636">
        <ele>-11.26</ele>
        <time>2019-09-08T09:39:51Z</time>
      </trkpt>
      <trkpt lat="51.668811896815896" lon="5.1982013694942">
        <ele>-11.210000000000001</ele>
        <time>2019-09-08T09:40:06Z</time>
      </trkpt>
      <trkpt lat="51.668817847967148" lon="5.198165662586689">
        <ele>-11.210000000000001</ele>
        <time>2019-09-08T09:40:08Z</time>
      </trkpt>
      <trkpt lat="51.668825894594193" lon="5.198152670636773">
        <ele>-11.210000000000001</ele>
        <time>2019-09-08T09:40:09Z</time>
      </trkpt>
      <trkpt lat="51.668834527954459" lon="5.198135990649462">
        <ele>-11.220000000000001</ele>
        <time>2019-09-08T09:40:10Z</time>
      </trkpt>
      <trkpt lat="51.668848944827914" lon="5.197917809709907">
        <ele>-11.24</ele>
        <time>2019-09-08T09:40:17Z</time>
      </trkpt>
      <trkpt lat="51.66885020211339" lon="5.19787791185081">
        <ele>-11.23</ele>
        <time>2019-09-08T09:40:18Z</time>
      </trkpt>
      <trkpt lat="51.668851124122739" lon="5.197838181629777">
        <ele>-11.23</ele>
        <time>2019-09-08T09:40:19Z</time>
      </trkpt>
      <trkpt lat="51.668851040303707" lon="5.197798619046807">
        <ele>-11.220000000000001</ele>
        <time>2019-09-08T09:40:20Z</time>
      </trkpt>
      <trkpt lat="51.668847603723407" lon="5.19774598069489">
        <ele>-11.199999999999999</ele>
        <time>2019-09-08T09:40:21Z</time>
      </trkpt>
      <trkpt lat="51.66884433478117" lon="5.197680685669184">
        <ele>-11.23</ele>
        <time>2019-09-08T09:40:22Z</time>
      </trkpt>
      <trkpt lat="51.668845424428582" lon="5.197537606582046">
        <ele>-11.199999999999999</ele>
        <time>2019-09-08T09:40:24Z</time>
      </trkpt>
      <trkpt lat="51.66885363869369" lon="5.197113230824471">
        <ele>-11.24</ele>
        <time>2019-09-08T09:40:30Z</time>
      </trkpt>
      <trkpt lat="51.668857745826244" lon="5.197048103436828">
        <ele>-11.24</ele>
        <time>2019-09-08T09:40:31Z</time>
      </trkpt>
      <trkpt lat="51.668859422206879" lon="5.196827575564385">
        <ele>-11.220000000000001</ele>
        <time>2019-09-08T09:40:34Z</time>
      </trkpt>
      <trkpt lat="51.668802173808217" lon="5.19588184542954">
        <ele>-12.17</ele>
        <time>2019-09-08T09:40:46Z</time>
      </trkpt>
      <trkpt lat="51.668801670894027" lon="5.195802468806505">
        <ele>-12.19</ele>
        <time>2019-09-08T09:40:47Z</time>
      </trkpt>
      <trkpt lat="51.668804353103042" lon="5.195727199316025">
        <ele>-12.210000000000001</ele>
        <time>2019-09-08T09:40:48Z</time>
      </trkpt>
      <trkpt lat="51.668810304254293" lon="5.195642542093992">
        <ele>-12.210000000000001</ele>
        <time>2019-09-08T09:40:49Z</time>
      </trkpt>
      <trkpt lat="51.668806783854961" lon="5.195560567080975">
        <ele>-12.19</ele>
        <time>2019-09-08T09:40:50Z</time>
      </trkpt>
      <trkpt lat="51.668796390295029" lon="5.195473311468959">
        <ele>-12.18</ele>
        <time>2019-09-08T09:40:51Z</time>
      </trkpt>
      <trkpt lat="51.668760515749454" lon="5.195027561858296">
        <ele>-12.210000000000001</ele>
        <time>2019-09-08T09:40:56Z</time>
      </trkpt>
      <trkpt lat="51.668720869347453" lon="5.193830039352179">
        <ele>-12.27</ele>
        <time>2019-09-08T09:41:09Z</time>
      </trkpt>
      <trkpt lat="51.668706033378839" lon="5.192587757483125">
        <ele>-12.34</ele>
        <time>2019-09-08T09:41:22Z</time>
      </trkpt>
      <trkpt lat="51.668675858527422" lon="5.191355450078845">
        <ele>-12.449999999999999</ele>
        <time>2019-09-08T09:41:35Z</time>
      </trkpt>
      <trkpt lat="51.668646270409226" lon="5.190158514305949">
        <ele>-12.4</ele>
        <time>2019-09-08T09:41:48Z</time>
      </trkpt>
      <trkpt lat="51.668611569330096" lon="5.189476981759071">
        <ele>-12.35</ele>
        <time>2019-09-08T09:41:55Z</time>
      </trkpt>
      <trkpt lat="51.668614167720079" lon="5.189012875780463">
        <ele>-12.33</ele>
        <time>2019-09-08T09:42:00Z</time>
      </trkpt>
      <trkpt lat="51.668619951233268" lon="5.188831323757768">
        <ele>-12.33</ele>
        <time>2019-09-08T09:42:02Z</time>
      </trkpt>
      <trkpt lat="51.668614922091365" lon="5.188632588833571">
        <ele>-12.32</ele>
        <time>2019-09-08T09:42:04Z</time>
      </trkpt>
      <trkpt lat="51.668575191870332" lon="5.188122466206551">
        <ele>-12.279999999999999</ele>
        <time>2019-09-08T09:42:09Z</time>
      </trkpt>
      <trkpt lat="51.668569156900048" lon="5.188028337433934">
        <ele>-12.279999999999999</ele>
        <time>2019-09-08T09:42:10Z</time>
      </trkpt>
      <trkpt lat="51.668515680357814" lon="5.187154607847333">
        <ele>-12.24</ele>
        <time>2019-09-08T09:42:19Z</time>
      </trkpt>
      <trkpt lat="51.66849204339087" lon="5.186093123629689">
        <ele>-12.19</ele>
        <time>2019-09-08T09:42:31Z</time>
      </trkpt>
      <trkpt lat="51.668488103896379" lon="5.186003688722849">
        <ele>-12.19</ele>
        <time>2019-09-08T09:42:32Z</time>
      </trkpt>
      <trkpt lat="51.668452899903059" lon="5.18467272631824">
        <ele>-12.16</ele>
        <time>2019-09-08T09:42:46Z</time>
      </trkpt>
      <trkpt lat="51.668432867154479" lon="5.184286739677191">
        <ele>-12.15</ele>
        <time>2019-09-08T09:42:50Z</time>
      </trkpt>
      <trkpt lat="51.668401435017586" lon="5.183524573221803">
        <ele>-12.109999999999999</ele>
        <time>2019-09-08T09:42:58Z</time>
      </trkpt>
      <trkpt lat="51.668371427804232" lon="5.18259066157043">
        <ele>-11.99</ele>
        <time>2019-09-08T09:43:11Z</time>
      </trkpt>
      <trkpt lat="51.668354663997889" lon="5.18220174126327">
        <ele>-11.91</ele>
        <time>2019-09-08T09:43:25Z</time>
      </trkpt>
      <trkpt lat="51.668330943211913" lon="5.181901920586824">
        <ele>-11.84</ele>
        <time>2019-09-08T09:43:38Z</time>
      </trkpt>
      <trkpt lat="51.66832541115582" lon="5.181701257824898">
        <ele>-11.789999999999999</ele>
        <time>2019-09-08T09:43:47Z</time>
      </trkpt>
      <trkpt lat="51.668325746431947" lon="5.181679548695684">
        <ele>-11.789999999999999</ele>
        <time>2019-09-08T09:43:48Z</time>
      </trkpt>
      <trkpt lat="51.66832784190774" lon="5.181657252833247">
        <ele>-11.779999999999999</ele>
        <time>2019-09-08T09:43:49Z</time>
      </trkpt>
      <trkpt lat="51.668329685926437" lon="5.181636633351445">
        <ele>-11.77</ele>
        <time>2019-09-08T09:43:50Z</time>
      </trkpt>
      <trkpt lat="51.668329518288374" lon="5.181614086031914">
        <ele>-11.76</ele>
        <time>2019-09-08T09:43:51Z</time>
      </trkpt>
      <trkpt lat="51.668330356478691" lon="5.181591287255287">
        <ele>-11.74</ele>
        <time>2019-09-08T09:43:52Z</time>
      </trkpt>
      <trkpt lat="51.668330607935786" lon="5.1815699134022">
        <ele>-11.75</ele>
        <time>2019-09-08T09:43:53Z</time>
      </trkpt>
      <trkpt lat="51.66831904090941" lon="5.181216867640615">
        <ele>-11.630000000000001</ele>
        <time>2019-09-08T09:44:08Z</time>
      </trkpt>
      <trkpt lat="51.668314933776855" lon="5.181076722219586">
        <ele>-11.619999999999999</ele>
        <time>2019-09-08T09:44:14Z</time>
      </trkpt>
      <trkpt lat="51.668312503024936" lon="5.181052414700389">
        <ele>-11.619999999999999</ele>
        <time>2019-09-08T09:44:15Z</time>
      </trkpt>
      <trkpt lat="51.668312251567841" lon="5.180892236530781">
        <ele>-11.57</ele>
        <time>2019-09-08T09:44:23Z</time>
      </trkpt>
      <trkpt lat="51.66833714582026" lon="5.18062443472445">
        <ele>-11.51</ele>
        <time>2019-09-08T09:44:39Z</time>
      </trkpt>
      <trkpt lat="51.668424569070339" lon="5.18048319965601">
        <ele>-11.52</ele>
        <time>2019-09-08T09:44:55Z</time>
      </trkpt>
      <trkpt lat="51.668469328433275" lon="5.180315729230642">
        <ele>-11.52</ele>
        <time>2019-09-08T09:45:06Z</time>
      </trkpt>
      <trkpt lat="51.66850914247334" lon="5.17997357994318">
        <ele>-11.51</ele>
        <time>2019-09-08T09:45:22Z</time>
      </trkpt>
      <trkpt lat="51.668490031734109" lon="5.179576864466071">
        <ele>-11.57</ele>
        <time>2019-09-08T09:45:41Z</time>
      </trkpt>
      <trkpt lat="51.668521715328097" lon="5.17930269241333">
        <ele>-11.609999999999999</ele>
        <time>2019-09-08T09:45:53Z</time>
      </trkpt>
      <trkpt lat="51.668530683964491" lon="5.179019048810005">
        <ele>-11.67</ele>
        <time>2019-09-08T09:46:02Z</time>
      </trkpt>
      <trkpt lat="51.668597739189863" lon="5.17872023396194">
        <ele>-11.76</ele>
        <time>2019-09-08T09:46:15Z</time>
      </trkpt>
      <trkpt lat="51.668593967333436" lon="5.17844170331955">
        <ele>-11.85</ele>
        <time>2019-09-08T09:46:25Z</time>
      </trkpt>
      <trkpt lat="51.668578796088696" lon="5.178147749975324">
        <ele>-12</ele>
        <time>2019-09-08T09:46:40Z</time>
      </trkpt>
      <trkpt lat="51.668573850765824" lon="5.177828315645456">
        <ele>-12.130000000000001</ele>
        <time>2019-09-08T09:46:53Z</time>
      </trkpt>
      <trkpt lat="51.668569575995207" lon="5.17737845890224">
        <ele>-12.359999999999999</ele>
        <time>2019-09-08T09:47:11Z</time>
      </trkpt>
      <trkpt lat="51.668528169393539" lon="5.177010912448168">
        <ele>-12.529999999999999</ele>
        <time>2019-09-08T09:47:26Z</time>
      </trkpt>
      <trkpt lat="51.668511154130101" lon="5.176753671839833">
        <ele>-12.66</ele>
        <time>2019-09-08T09:47:36Z</time>
      </trkpt>
      <trkpt lat="51.66850863955915" lon="5.176377911120653">
        <ele>-12.85</ele>
        <time>2019-09-08T09:47:50Z</time>
      </trkpt>
      <trkpt lat="51.668506292626262" lon="5.176012711599469">
        <ele>-13.039999999999999</ele>
        <time>2019-09-08T09:48:04Z</time>
      </trkpt>
      <trkpt lat="51.668524900451303" lon="5.175703251734376">
        <ele>-13.220000000000001</ele>
        <time>2019-09-08T09:48:17Z</time>
      </trkpt>
      <trkpt lat="51.668502856045961" lon="5.175132779404521">
        <ele>-12.380000000000001</ele>
        <time>2019-09-08T09:48:36Z</time>
      </trkpt>
      <trkpt lat="51.668476788327098" lon="5.174784176051617">
        <ele>-12.49</ele>
        <time>2019-09-08T09:48:49Z</time>
      </trkpt>
      <trkpt lat="51.668481566011906" lon="5.174518888816237">
        <ele>-12.56</ele>
        <time>2019-09-08T09:49:00Z</time>
      </trkpt>
      <trkpt lat="51.668483326211572" lon="5.174180846661329">
        <ele>-12.65</ele>
        <time>2019-09-08T09:49:15Z</time>
      </trkpt>
      <trkpt lat="51.668481985107064" lon="5.174154946580529">
        <ele>-12.640000000000001</ele>
        <time>2019-09-08T09:49:16Z</time>
      </trkpt>
      <trkpt lat="51.668477710336447" lon="5.174134075641632">
        <ele>-12.66</ele>
        <time>2019-09-08T09:49:17Z</time>
      </trkpt>
      <trkpt lat="51.668476201593876" lon="5.173874571919441">
        <ele>-11.880000000000001</ele>
        <time>2019-09-08T09:49:28Z</time>
      </trkpt>
      <trkpt lat="51.668485337868333" lon="5.173776838928461">
        <ele>-11.9</ele>
        <time>2019-09-08T09:49:32Z</time>
      </trkpt>
      <trkpt lat="51.668482823297381" lon="5.173728978261352">
        <ele>-11.93</ele>
        <time>2019-09-08T09:49:34Z</time>
      </trkpt>
      <trkpt lat="51.66848273947835" lon="5.173661252483726">
        <ele>-11.960000000000001</ele>
        <time>2019-09-08T09:49:37Z</time>
      </trkpt>
      <trkpt lat="51.66845097206533" lon="5.173386493697763">
        <ele>-12.06</ele>
        <time>2019-09-08T09:49:48Z</time>
      </trkpt>
      <trkpt lat="51.668468657881021" lon="5.173127576708794">
        <ele>-12.130000000000001</ele>
        <time>2019-09-08T09:50:01Z</time>
      </trkpt>
      <trkpt lat="51.668461449444294" lon="5.173108717426658">
        <ele>-12.16</ele>
        <time>2019-09-08T09:50:02Z</time>
      </trkpt>
      <trkpt lat="51.668455582112074" lon="5.17309463582933">
        <ele>-12.17</ele>
        <time>2019-09-08T09:50:03Z</time>
      </trkpt>
      <trkpt lat="51.668430687859654" lon="5.172847034409642">
        <ele>-12.279999999999999</ele>
        <time>2019-09-08T09:50:14Z</time>
      </trkpt>
      <trkpt lat="51.668426999822259" lon="5.172655759379268">
        <ele>-12.34</ele>
        <time>2019-09-08T09:50:22Z</time>
      </trkpt>
      <trkpt lat="51.668416019529104" lon="5.172630110755563">
        <ele>-12.35</ele>
        <time>2019-09-08T09:50:23Z</time>
      </trkpt>
      <trkpt lat="51.668405123054981" lon="5.172602199018002">
        <ele>-12.33</ele>
        <time>2019-09-08T09:50:24Z</time>
      </trkpt>
      <trkpt lat="51.668400764465332" lon="5.17257571220398">
        <ele>-12.359999999999999</ele>
        <time>2019-09-08T09:50:25Z</time>
      </trkpt>
      <trkpt lat="51.668404620140791" lon="5.172546207904816">
        <ele>-12.35</ele>
        <time>2019-09-08T09:50:26Z</time>
      </trkpt>
      <trkpt lat="51.66840897873044" lon="5.172360213473439">
        <ele>-12.41</ele>
        <time>2019-09-08T09:50:34Z</time>
      </trkpt>
      <trkpt lat="51.668401602655649" lon="5.172342779114842">
        <ele>-12.42</ele>
        <time>2019-09-08T09:50:35Z</time>
      </trkpt>
      <trkpt lat="51.66837721131742" lon="5.172081096097827">
        <ele>-12.5</ele>
        <time>2019-09-08T09:50:48Z</time>
      </trkpt>
      <trkpt lat="51.668349048122764" lon="5.171636939048767">
        <ele>-12.720000000000001</ele>
        <time>2019-09-08T09:51:07Z</time>
      </trkpt>
      <trkpt lat="51.668335217982531" lon="5.171366622671485">
        <ele>-12.85</ele>
        <time>2019-09-08T09:51:17Z</time>
      </trkpt>
      <trkpt lat="51.668288949877024" lon="5.17090511508286">
        <ele>-13.140000000000001</ele>
        <time>2019-09-08T09:51:38Z</time>
      </trkpt>
      <trkpt lat="51.668134387582541" lon="5.167901292443276">
        <ele>-15.33</ele>
        <time>2019-09-08T09:53:44Z</time>
      </trkpt>
      <trkpt lat="51.668056435883045" lon="5.167724685743451">
        <ele>-15.65</ele>
        <time>2019-09-08T09:54:03Z</time>
      </trkpt>
      <trkpt lat="51.668022992089391" lon="5.16760884784162">
        <ele>-15.76</ele>
        <time>2019-09-08T09:54:09Z</time>
      </trkpt>
      <trkpt lat="51.6680156160146" lon="5.167544977739453">
        <ele>-15.789999999999999</ele>
        <time>2019-09-08T09:54:12Z</time>
      </trkpt>
      <trkpt lat="51.668020896613598" lon="5.167528884485364">
        <ele>-15.82</ele>
        <time>2019-09-08T09:54:13Z</time>
      </trkpt>
      <trkpt lat="51.667988877743483" lon="5.167195200920105">
        <ele>-16.010000000000002</ele>
        <time>2019-09-08T09:54:25Z</time>
      </trkpt>
      <trkpt lat="51.667889636009932" lon="5.166651299223304">
        <ele>-16.27</ele>
        <time>2019-09-08T09:54:45Z</time>
      </trkpt>
      <trkpt lat="51.66782165877521" lon="5.165182873606682">
        <ele>-17.140000000000001</ele>
        <time>2019-09-08T09:55:49Z</time>
      </trkpt>
      <trkpt lat="51.66792718693614" lon="5.163956768810749">
        <ele>-17.93</ele>
        <time>2019-09-08T09:57:03Z</time>
      </trkpt>
      <trkpt lat="51.6678895521909" lon="5.16379457898438">
        <ele>-17.960000000000001</ele>
        <time>2019-09-08T09:57:26Z</time>
      </trkpt>
      <trkpt lat="51.667891312390566" lon="5.163753675296903">
        <ele>-17.960000000000001</ele>
        <time>2019-09-08T09:57:28Z</time>
      </trkpt>
      <trkpt lat="51.667885864153504" lon="5.16372811049223">
        <ele>-17.969999999999999</ele>
        <time>2019-09-08T09:57:30Z</time>
      </trkpt>
      <trkpt lat="51.667872872203588" lon="5.162924872711301">
        <ele>-18</ele>
        <time>2019-09-08T09:58:12Z</time>
      </trkpt>
      <trkpt lat="51.667891647666693" lon="5.162913138046861">
        <ele>-18</ele>
        <time>2019-09-08T09:58:15Z</time>
      </trkpt>
      <trkpt lat="51.667908495292068" lon="5.16280853189528">
        <ele>-18.02</ele>
        <time>2019-09-08T09:58:36Z</time>
      </trkpt>
      <trkpt lat="51.66785828769207" lon="5.162665620446205">
        <ele>-17.940000000000001</ele>
        <time>2019-09-08T09:59:01Z</time>
      </trkpt>
      <trkpt lat="51.667845798656344" lon="5.162097495049238">
        <ele>-17.800000000000001</ele>
        <time>2019-09-08T09:59:32Z</time>
      </trkpt>
      <trkpt lat="51.667851163074374" lon="5.161697426810861">
        <ele>-17.780000000000001</ele>
        <time>2019-09-08T09:59:52Z</time>
      </trkpt>
      <trkpt lat="51.667870776727796" lon="5.161279002204537">
        <ele>-17.789999999999999</ele>
        <time>2019-09-08T10:00:10Z</time>
      </trkpt>
      <trkpt lat="51.667869351804256" lon="5.161025617271662">
        <ele>-17.789999999999999</ele>
        <time>2019-09-08T10:00:22Z</time>
      </trkpt>
      <trkpt lat="51.667880918830633" lon="5.161012960597873">
        <ele>-17.789999999999999</ele>
        <time>2019-09-08T10:00:23Z</time>
      </trkpt>
      <trkpt lat="51.667884774506092" lon="5.160805592313409">
        <ele>-17.789999999999999</ele>
        <time>2019-09-08T10:00:36Z</time>
      </trkpt>
      <trkpt lat="51.66790371760726" lon="5.160769885405898">
        <ele>-17.789999999999999</ele>
        <time>2019-09-08T10:00:39Z</time>
      </trkpt>
      <trkpt lat="51.667971275746822" lon="5.160741051658988">
        <ele>-17.789999999999999</ele>
        <time>2019-09-08T10:00:52Z</time>
      </trkpt>
      <trkpt lat="51.668051825836301" lon="5.160542316734791">
        <ele>-17.800000000000001</ele>
        <time>2019-09-08T10:01:08Z</time>
      </trkpt>
      <trkpt lat="51.668108571320772" lon="5.160343246534467">
        <ele>-17.82</ele>
        <time>2019-09-08T10:01:17Z</time>
      </trkpt>
      <trkpt lat="51.668130280449986" lon="5.160008054226637">
        <ele>-17.84</ele>
        <time>2019-09-08T10:01:31Z</time>
      </trkpt>
      <trkpt lat="51.668141763657331" lon="5.159731199964881">
        <ele>-17.859999999999999</ele>
        <time>2019-09-08T10:01:42Z</time>
      </trkpt>
      <trkpt lat="51.668122904375196" lon="5.159410089254379">
        <ele>-17.890000000000001</ele>
        <time>2019-09-08T10:01:49Z</time>
      </trkpt>
      <trkpt lat="51.668124245479703" lon="5.158729897812009">
        <ele>-17.93</ele>
        <time>2019-09-08T10:02:00Z</time>
      </trkpt>
      <trkpt lat="51.66812994517386" lon="5.158703159540892">
        <ele>-17.940000000000001</ele>
        <time>2019-09-08T10:02:01Z</time>
      </trkpt>
      <trkpt lat="51.668134722858667" lon="5.158676840364933">
        <ele>-17.960000000000001</ele>
        <time>2019-09-08T10:02:03Z</time>
      </trkpt>
      <trkpt lat="51.668135309591889" lon="5.158669129014015">
        <ele>-17.98</ele>
        <time>2019-09-08T10:02:04Z</time>
      </trkpt>
      <trkpt lat="51.668125418946147" lon="5.158654293045402">
        <ele>-17.98</ele>
        <time>2019-09-08T10:02:05Z</time>
      </trkpt>
      <trkpt lat="51.668108319863677" lon="5.158641552552581">
        <ele>-17.989999999999998</ele>
        <time>2019-09-08T10:02:06Z</time>
      </trkpt>
      <trkpt lat="51.668091388419271" lon="5.158621855080128">
        <ele>-18.010000000000002</ele>
        <time>2019-09-08T10:02:07Z</time>
      </trkpt>
      <trkpt lat="51.668069930747151" lon="5.158601654693484">
        <ele>-18.010000000000002</ele>
        <time>2019-09-08T10:02:08Z</time>
      </trkpt>
      <trkpt lat="51.668051993474364" lon="5.158573826774955">
        <ele>-18.02</ele>
        <time>2019-09-08T10:02:09Z</time>
      </trkpt>
      <trkpt lat="51.668033637106419" lon="5.158556140959263">
        <ele>-18.030000000000001</ele>
        <time>2019-09-08T10:02:10Z</time>
      </trkpt>
      <trkpt lat="51.66801662184298" lon="5.158553123474121">
        <ele>-18.030000000000001</ele>
        <time>2019-09-08T10:02:11Z</time>
      </trkpt>
      <trkpt lat="51.668001115322113" lon="5.158550441265106">
        <ele>-18.039999999999999</ele>
        <time>2019-09-08T10:02:12Z</time>
      </trkpt>
      <trkpt lat="51.667809002101421" lon="5.158453043550253">
        <ele>-18.140000000000001</ele>
        <time>2019-09-08T10:02:19Z</time>
      </trkpt>
      <trkpt lat="51.667728116735816" lon="5.15835078433156">
        <ele>-18.27</ele>
        <time>2019-09-08T10:02:28Z</time>
      </trkpt>
      <trkpt lat="51.667372556403279" lon="5.158234862610698">
        <ele>-18.440000000000001</ele>
        <time>2019-09-08T10:02:49Z</time>
      </trkpt>
      <trkpt lat="51.66718396358192" lon="5.1582364551723">
        <ele>-18.469999999999999</ele>
        <time>2019-09-08T10:02:52Z</time>
      </trkpt>
      <trkpt lat="51.66713903658092" lon="5.157990949228406">
        <ele>-18.469999999999999</ele>
        <time>2019-09-08T10:02:53Z</time>
      </trkpt>
      <trkpt lat="51.667087906971574" lon="5.15667331404984">
        <ele>-18.670000000000002</ele>
        <time>2019-09-08T10:03:23Z</time>
      </trkpt>
      <trkpt lat="51.667062845081091" lon="5.156612377613783">
        <ele>-18.68</ele>
        <time>2019-09-08T10:03:24Z</time>
      </trkpt>
      <trkpt lat="51.667050020769238" lon="5.156548339873552">
        <ele>-18.690000000000001</ele>
        <time>2019-09-08T10:03:25Z</time>
      </trkpt>
      <trkpt lat="51.667045745998621" lon="5.156482625752688">
        <ele>-18.699999999999999</ele>
        <time>2019-09-08T10:03:26Z</time>
      </trkpt>
      <trkpt lat="51.667037196457386" lon="5.156410122290254">
        <ele>-18.710000000000001</ele>
        <time>2019-09-08T10:03:27Z</time>
      </trkpt>
      <trkpt lat="51.667019845917821" lon="5.156082138419151">
        <ele>-18.75</ele>
        <time>2019-09-08T10:03:31Z</time>
      </trkpt>
      <trkpt lat="51.66689570993185" lon="5.155571680516005">
        <ele>-18.850000000000001</ele>
        <time>2019-09-08T10:03:39Z</time>
      </trkpt>
      <trkpt lat="51.666890261694789" lon="5.155479228124023">
        <ele>-18.859999999999999</ele>
        <time>2019-09-08T10:03:40Z</time>
      </trkpt>
      <trkpt lat="51.666877018287778" lon="5.155392894521356">
        <ele>-18.870000000000001</ele>
        <time>2019-09-08T10:03:41Z</time>
      </trkpt>
      <trkpt lat="51.666880790144205" lon="5.15530513599515">
        <ele>-18.890000000000001</ele>
        <time>2019-09-08T10:03:42Z</time>
      </trkpt>
      <trkpt lat="51.666806526482105" lon="5.153783652931452">
        <ele>-19.140000000000001</ele>
        <time>2019-09-08T10:03:58Z</time>
      </trkpt>
      <trkpt lat="51.66680577211082" lon="5.153703102841973">
        <ele>-19.16</ele>
        <time>2019-09-08T10:03:59Z</time>
      </trkpt>
      <trkpt lat="51.666824547573924" lon="5.153633030131459">
        <ele>-19.18</ele>
        <time>2019-09-08T10:04:00Z</time>
      </trkpt>
      <trkpt lat="51.666814656928182" lon="5.153544349595904">
        <ele>-19.199999999999999</ele>
        <time>2019-09-08T10:04:01Z</time>
      </trkpt>
      <trkpt lat="51.666814154013991" lon="5.15345617197454">
        <ele>-19.23</ele>
        <time>2019-09-08T10:04:02Z</time>
      </trkpt>
      <trkpt lat="51.666804347187281" lon="5.153364641591907">
        <ele>-19.25</ele>
        <time>2019-09-08T10:04:03Z</time>
      </trkpt>
      <trkpt lat="51.666790600866079" lon="5.153271602466703">
        <ele>-19.27</ele>
        <time>2019-09-08T10:04:04Z</time>
      </trkpt>
      <trkpt lat="51.666787248104811" lon="5.153195997700095">
        <ele>-19.280000000000001</ele>
        <time>2019-09-08T10:04:05Z</time>
      </trkpt>
      <trkpt lat="51.666781548410654" lon="5.152535000815988">
        <ele>-19.48</ele>
        <time>2019-09-08T10:04:15Z</time>
      </trkpt>
      <trkpt lat="51.666720528155565" lon="5.150619316846132">
        <ele>-20.149999999999999</ele>
        <time>2019-09-08T10:04:44Z</time>
      </trkpt>
      <trkpt lat="51.666708458214998" lon="5.150569109246135">
        <ele>-20.170000000000002</ele>
        <time>2019-09-08T10:04:45Z</time>
      </trkpt>
      <trkpt lat="51.66668607853353" lon="5.150507166981697">
        <ele>-20.190000000000001</ele>
        <time>2019-09-08T10:04:46Z</time>
      </trkpt>
      <trkpt lat="51.666681217029691" lon="5.150047419592738">
        <ele>-20.359999999999999</ele>
        <time>2019-09-08T10:04:54Z</time>
      </trkpt>
      <trkpt lat="51.666669482365251" lon="5.14999570325017">
        <ele>-20.390000000000001</ele>
        <time>2019-09-08T10:04:55Z</time>
      </trkpt>
      <trkpt lat="51.666516344994307" lon="5.149446185678244">
        <ele>-20.640000000000001</ele>
        <time>2019-09-08T10:05:07Z</time>
      </trkpt>
      <trkpt lat="51.666394472122192" lon="5.148981744423509">
        <ele>-20.84</ele>
        <time>2019-09-08T10:05:20Z</time>
      </trkpt>
      <trkpt lat="51.666348455473781" lon="5.148578491061926">
        <ele>-23.52</ele>
        <time>2019-09-08T10:05:37Z</time>
      </trkpt>
      <trkpt lat="51.666342755779624" lon="5.148544209077954">
        <ele>-23.52</ele>
        <time>2019-09-08T10:05:38Z</time>
      </trkpt>
      <trkpt lat="51.666335128247738" lon="5.148519147187471">
        <ele>-23.550000000000001</ele>
        <time>2019-09-08T10:05:39Z</time>
      </trkpt>
      <trkpt lat="51.666337810456753" lon="5.14848000369966">
        <ele>-23.579999999999998</ele>
        <time>2019-09-08T10:05:41Z</time>
      </trkpt>
      <trkpt lat="51.666337642818689" lon="5.148461982607842">
        <ele>-23.59</ele>
        <time>2019-09-08T10:05:42Z</time>
      </trkpt>
      <trkpt lat="51.666339905932546" lon="5.148445470258594">
        <ele>-23.600000000000001</ele>
        <time>2019-09-08T10:05:43Z</time>
      </trkpt>
      <trkpt lat="51.665713442489505" lon="5.145522197708488">
        <ele>-21.870000000000001</ele>
        <time>2019-09-08T10:07:45Z</time>
      </trkpt>
      <trkpt lat="51.665596347302198" lon="5.14507669955492">
        <ele>-21.879999999999999</ele>
        <time>2019-09-08T10:08:06Z</time>
      </trkpt>
      <trkpt lat="51.665466260164976" lon="5.144630782306194">
        <ele>-21.91</ele>
        <time>2019-09-08T10:08:27Z</time>
      </trkpt>
      <trkpt lat="51.665409179404378" lon="5.144456941634417">
        <ele>-21.93</ele>
        <time>2019-09-08T10:08:36Z</time>
      </trkpt>
      <trkpt lat="51.665410101413727" lon="5.144437327980995">
        <ele>-21.940000000000001</ele>
        <time>2019-09-08T10:08:37Z</time>
      </trkpt>
      <trkpt lat="51.665354780852795" lon="5.144129544496536">
        <ele>-21.969999999999999</ele>
        <time>2019-09-08T10:08:56Z</time>
      </trkpt>
      <trkpt lat="51.665241373702884" lon="5.143788568675518">
        <ele>-21.98</ele>
        <time>2019-09-08T10:09:13Z</time>
      </trkpt>
      <trkpt lat="51.665136096999049" lon="5.143328569829464">
        <ele>-21.960000000000001</ele>
        <time>2019-09-08T10:09:34Z</time>
      </trkpt>
      <trkpt lat="51.66507801041007" lon="5.143139725551009">
        <ele>-21.949999999999999</ele>
        <time>2019-09-08T10:09:42Z</time>
      </trkpt>
      <trkpt lat="51.665000477805734" lon="5.142769580706954">
        <ele>-21.91</ele>
        <time>2019-09-08T10:10:00Z</time>
      </trkpt>
      <trkpt lat="51.664881622418761" lon="5.142392059788108">
        <ele>-20.93</ele>
        <time>2019-09-08T10:10:16Z</time>
      </trkpt>
      <trkpt lat="51.66476771235466" lon="5.142020909115672">
        <ele>-20.870000000000001</ele>
        <time>2019-09-08T10:10:33Z</time>
      </trkpt>
      <trkpt lat="51.664717588573694" lon="5.141739696264267">
        <ele>-20.800000000000001</ele>
        <time>2019-09-08T10:10:44Z</time>
      </trkpt>
      <trkpt lat="51.664642989635468" lon="5.141402911394835">
        <ele>-20.739999999999998</ele>
        <time>2019-09-08T10:10:59Z</time>
      </trkpt>
      <trkpt lat="51.664581215009093" lon="5.141105856746435">
        <ele>-20.699999999999999</ele>
        <time>2019-09-08T10:11:12Z</time>
      </trkpt>
      <trkpt lat="51.664535952731967" lon="5.140836881473661">
        <ele>-20.66</ele>
        <time>2019-09-08T10:11:29Z</time>
      </trkpt>
      <trkpt lat="51.664453307166696" lon="5.140622891485691">
        <ele>-20.649999999999999</ele>
        <time>2019-09-08T10:11:39Z</time>
      </trkpt>
      <trkpt lat="51.664348281919956" lon="5.14028619043529">
        <ele>-20.670000000000002</ele>
        <time>2019-09-08T10:11:55Z</time>
      </trkpt>
      <trkpt lat="51.664259098470211" lon="5.140047809109092">
        <ele>-20.699999999999999</ele>
        <time>2019-09-08T10:12:06Z</time>
      </trkpt>
      <trkpt lat="51.664245435968041" lon="5.139883356168866">
        <ele>-20.739999999999998</ele>
        <time>2019-09-08T10:12:18Z</time>
      </trkpt>
      <trkpt lat="51.664160694926977" lon="5.139361582696438">
        <ele>-20.879999999999999</ele>
        <time>2019-09-08T10:12:40Z</time>
      </trkpt>
      <trkpt lat="51.664074528962374" lon="5.138834528625011">
        <ele>-21.050000000000001</ele>
        <time>2019-09-08T10:13:03Z</time>
      </trkpt>
      <trkpt lat="51.663954835385084" lon="5.138482572510839">
        <ele>-21.199999999999999</ele>
        <time>2019-09-08T10:13:22Z</time>
      </trkpt>
      <trkpt lat="51.663857856765389" lon="5.138229439035058">
        <ele>-21.329999999999998</ele>
        <time>2019-09-08T10:13:37Z</time>
      </trkpt>
      <trkpt lat="51.663724333047867" lon="5.138093316927552">
        <ele>-21.379999999999999</ele>
        <time>2019-09-08T10:13:45Z</time>
      </trkpt>
      <trkpt lat="51.663517383858562" lon="5.138007989153266">
        <ele>-21.43</ele>
        <time>2019-09-08T10:13:52Z</time>
      </trkpt>
      <trkpt lat="51.663495004177094" lon="5.138001870363951">
        <ele>-21.440000000000001</ele>
        <time>2019-09-08T10:13:53Z</time>
      </trkpt>
      <trkpt lat="51.663205241784453" lon="5.13798275962472">
        <ele>-21.469999999999999</ele>
        <time>2019-09-08T10:14:09Z</time>
      </trkpt>
      <trkpt lat="51.662979181855917" lon="5.138046042993665">
        <ele>-21.440000000000001</ele>
        <time>2019-09-08T10:14:24Z</time>
      </trkpt>
      <trkpt lat="51.662766197696328" lon="5.138056101277471">
        <ele>-21.379999999999999</ele>
        <time>2019-09-08T10:14:37Z</time>
      </trkpt>
      <trkpt lat="51.66258548386395" lon="5.138057190924883">
        <ele>-21.280000000000001</ele>
        <time>2019-09-08T10:14:51Z</time>
      </trkpt>
      <trkpt lat="51.662557991221547" lon="5.138076301664114">
        <ele>-21.27</ele>
        <time>2019-09-08T10:14:53Z</time>
      </trkpt>
      <trkpt lat="51.662545334547758" lon="5.138078732416034">
        <ele>-21.260000000000002</ele>
        <time>2019-09-08T10:14:54Z</time>
      </trkpt>
      <trkpt lat="51.662534940987825" lon="5.138084935024381">
        <ele>-21.25</ele>
        <time>2019-09-08T10:14:55Z</time>
      </trkpt>
      <trkpt lat="51.66223662905395" lon="5.138109577819705">
        <ele>-20.260000000000002</ele>
        <time>2019-09-08T10:15:17Z</time>
      </trkpt>
      <trkpt lat="51.661887187510729" lon="5.138182081282139">
        <ele>-20.02</ele>
        <time>2019-09-08T10:15:41Z</time>
      </trkpt>
      <trkpt lat="51.661556856706738" lon="5.138232037425041">
        <ele>-19.77</ele>
        <time>2019-09-08T10:16:04Z</time>
      </trkpt>
      <trkpt lat="51.661232309415936" lon="5.138295823708177">
        <ele>-19.579999999999998</ele>
        <time>2019-09-08T10:16:23Z</time>
      </trkpt>
      <trkpt lat="51.661213953047991" lon="5.13829356059432">
        <ele>-19.550000000000001</ele>
        <time>2019-09-08T10:16:24Z</time>
      </trkpt>
      <trkpt lat="51.661199200898409" lon="5.13829892501235">
        <ele>-19.539999999999999</ele>
        <time>2019-09-08T10:16:25Z</time>
      </trkpt>
      <trkpt lat="51.661166595295072" lon="5.138306887820363">
        <ele>-19.52</ele>
        <time>2019-09-08T10:16:27Z</time>
      </trkpt>
      <trkpt lat="51.660908348858356" lon="5.138325914740562">
        <ele>-19.34</ele>
        <time>2019-09-08T10:16:42Z</time>
      </trkpt>
      <trkpt lat="51.660890663042665" lon="5.138329518958926">
        <ele>-19.329999999999998</ele>
        <time>2019-09-08T10:16:43Z</time>
      </trkpt>
      <trkpt lat="51.660873647779226" lon="5.138324908912182">
        <ele>-19.309999999999999</ele>
        <time>2019-09-08T10:16:44Z</time>
      </trkpt>
      <trkpt lat="51.660856381058693" lon="5.138321723788977">
        <ele>-19.300000000000001</ele>
        <time>2019-09-08T10:16:45Z</time>
      </trkpt>
      <trkpt lat="51.660711290314794" lon="5.138377463445067">
        <ele>-19.170000000000002</ele>
        <time>2019-09-08T10:16:57Z</time>
      </trkpt>
      <trkpt lat="51.660489672794938" lon="5.138434963300824">
        <ele>-18.969999999999999</ele>
        <time>2019-09-08T10:17:16Z</time>
      </trkpt>
      <trkpt lat="51.660153307020664" lon="5.138421636074781">
        <ele>-18.780000000000001</ele>
        <time>2019-09-08T10:17:37Z</time>
      </trkpt>
      <trkpt lat="51.659972844645381" lon="5.13844795525074">
        <ele>-18.690000000000001</ele>
        <time>2019-09-08T10:17:51Z</time>
      </trkpt>
      <trkpt lat="51.659654080867767" lon="5.138528002426028">
        <ele>-18.510000000000002</ele>
        <time>2019-09-08T10:18:15Z</time>
      </trkpt>
      <trkpt lat="51.659342693164945" lon="5.138578293845058">
        <ele>-18.440000000000001</ele>
        <time>2019-09-08T10:18:37Z</time>
      </trkpt>
      <trkpt lat="51.659092241898179" lon="5.138597236946225">
        <ele>-18.32</ele>
        <time>2019-09-08T10:18:54Z</time>
      </trkpt>
      <trkpt lat="51.658759983256459" lon="5.13858768157661">
        <ele>-18.25</ele>
        <time>2019-09-08T10:19:15Z</time>
      </trkpt>
      <trkpt lat="51.658574072644114" lon="5.138596231117845">
        <ele>-18.190000000000001</ele>
        <time>2019-09-08T10:19:28Z</time>
      </trkpt>
      <trkpt lat="51.658466616645455" lon="5.138646941632032">
        <ele>-18.199999999999999</ele>
        <time>2019-09-08T10:19:35Z</time>
      </trkpt>
      <trkpt lat="51.658256147056818" lon="5.138753559440374">
        <ele>-18.16</ele>
        <time>2019-09-08T10:19:50Z</time>
      </trkpt>
      <trkpt lat="51.65807107463479" lon="5.138863613829017">
        <ele>-18.120000000000001</ele>
        <time>2019-09-08T10:20:02Z</time>
      </trkpt>
      <trkpt lat="51.658048024401069" lon="5.138866547495127">
        <ele>-18.120000000000001</ele>
        <time>2019-09-08T10:20:03Z</time>
      </trkpt>
      <trkpt lat="51.658030673861504" lon="5.138874929398298">
        <ele>-18.09</ele>
        <time>2019-09-08T10:20:04Z</time>
      </trkpt>
      <trkpt lat="51.657782066613436" lon="5.138942319899797">
        <ele>-18.09</ele>
        <time>2019-09-08T10:20:23Z</time>
      </trkpt>
      <trkpt lat="51.657467912882566" lon="5.139024797827005">
        <ele>-18.010000000000002</ele>
        <time>2019-09-08T10:20:46Z</time>
      </trkpt>
      <trkpt lat="51.657151747494936" lon="5.139114568009973">
        <ele>-17.18</ele>
        <time>2019-09-08T10:21:11Z</time>
      </trkpt>
      <trkpt lat="51.656842874363065" lon="5.139221688732505">
        <ele>-17.18</ele>
        <time>2019-09-08T10:21:32Z</time>
      </trkpt>
      <trkpt lat="51.656664339825511" lon="5.139380022883415">
        <ele>-17.16</ele>
        <time>2019-09-08T10:21:46Z</time>
      </trkpt>
      <trkpt lat="51.656653275713325" lon="5.139415059238672">
        <ele>-17.16</ele>
        <time>2019-09-08T10:21:47Z</time>
      </trkpt>
      <trkpt lat="51.656453786417842" lon="5.139569789171219">
        <ele>-17.170000000000002</ele>
        <time>2019-09-08T10:22:03Z</time>
      </trkpt>
      <trkpt lat="51.656349180266261" lon="5.139582194387913">
        <ele>-17.18</ele>
        <time>2019-09-08T10:22:09Z</time>
      </trkpt>
      <trkpt lat="51.656093532219529" lon="5.139646986499429">
        <ele>-17.16</ele>
        <time>2019-09-08T10:22:28Z</time>
      </trkpt>
      <trkpt lat="51.656358484178782" lon="5.140953222289681">
        <ele>-17.25</ele>
        <time>2019-09-08T10:23:16Z</time>
      </trkpt>
      <trkpt lat="51.656362172216177" lon="5.141050200909376">
        <ele>-17.239999999999998</ele>
        <time>2019-09-08T10:23:19Z</time>
      </trkpt>
      <trkpt lat="51.656371308490634" lon="5.141311548650265">
        <ele>-21.649999999999999</ele>
        <time>2019-09-08T10:23:29Z</time>
      </trkpt>
      <trkpt lat="51.656540036201477" lon="5.143448011949658">
        <ele>-17.120000000000001</ele>
        <time>2019-09-08T10:23:30Z</time>
      </trkpt>
      <trkpt lat="51.656030667945743" lon="5.143751269206405">
        <ele>-17.140000000000001</ele>
        <time>2019-09-08T10:23:31Z</time>
      </trkpt>
      <trkpt lat="51.656804149970412" lon="5.149088948965073">
        <ele>-17.140000000000001</ele>
        <time>2019-09-08T10:23:32Z</time>
      </trkpt>
      <trkpt lat="51.656804149970412" lon="5.149948261678219">
        <ele>-17.149999999999999</ele>
        <time>2019-09-08T10:23:33Z</time>
      </trkpt>
      <trkpt lat="51.656326213851571" lon="5.151120889931917">
        <ele>-17.149999999999999</ele>
        <time>2019-09-08T10:23:34Z</time>
      </trkpt>
      <trkpt lat="51.654804479330778" lon="5.151454489678145">
        <ele>-17.129999999999999</ele>
        <time>2019-09-08T10:23:35Z</time>
      </trkpt>
      <trkpt lat="51.652759881690145" lon="5.152764329686761">
        <ele>-52.740000000000002</ele>
        <time>2019-09-08T10:23:36Z</time>
      </trkpt>
      <trkpt lat="51.65076557546854" lon="5.154526205733419">
        <ele>18.699999999999999</ele>
        <time>2019-09-08T12:42:49Z</time>
      </trkpt>
      <trkpt lat="51.650213124230504" lon="5.154387149959803">
        <ele>18.699999999999999</ele>
        <time>2019-09-08T12:42:51Z</time>
      </trkpt>
      <trkpt lat="51.650193678215146" lon="5.154387904331088">
        <ele>18.710000000000001</ele>
        <time>2019-09-08T12:42:53Z</time>
      </trkpt>
      <trkpt lat="51.650011455640197" lon="5.154117755591869">
        <ele>20.710000000000001</ele>
        <time>2019-09-08T12:43:15Z</time>
      </trkpt>
      <trkpt lat="51.649975832551718" lon="5.154077773913741">
        <ele>20.649999999999999</ele>
        <time>2019-09-08T12:43:19Z</time>
      </trkpt>
      <trkpt lat="51.649811882525682" lon="5.153965959325433">
        <ele>20.52</ele>
        <time>2019-09-08T12:43:33Z</time>
      </trkpt>
      <trkpt lat="51.649631587788463" lon="5.153785748407245">
        <ele>20.41</ele>
        <time>2019-09-08T12:43:48Z</time>
      </trkpt>
      <trkpt lat="51.649490939453244" lon="5.153633616864681">
        <ele>20.289999999999999</ele>
        <time>2019-09-08T12:44:01Z</time>
      </trkpt>
      <trkpt lat="51.64933243766427" lon="5.153501098975539">
        <ele>20.129999999999999</ele>
        <time>2019-09-08T12:44:16Z</time>
      </trkpt>
      <trkpt lat="51.64916873909533" lon="5.153370341286063">
        <ele>20</ele>
        <time>2019-09-08T12:44:32Z</time>
      </trkpt>
      <trkpt lat="51.64892490953207" lon="5.153217623010278">
        <ele>19.75</ele>
        <time>2019-09-08T12:44:54Z</time>
      </trkpt>
      <trkpt lat="51.648782836273313" lon="5.153105473145843">
        <ele>19.539999999999999</ele>
        <time>2019-09-08T12:45:08Z</time>
      </trkpt>
      <trkpt lat="51.64863464422524" lon="5.153023498132825">
        <ele>19.32</ele>
        <time>2019-09-08T12:45:24Z</time>
      </trkpt>
      <trkpt lat="51.648413278162479" lon="5.152875306084752">
        <ele>18.960000000000001</ele>
        <time>2019-09-08T12:45:47Z</time>
      </trkpt>
      <trkpt lat="51.648383606225252" lon="5.152836414054036">
        <ele>18.91</ele>
        <time>2019-09-08T12:45:50Z</time>
      </trkpt>
      <trkpt lat="51.648185709491372" lon="5.152524774894118">
        <ele>16.23</ele>
        <time>2019-09-08T12:46:12Z</time>
      </trkpt>
      <trkpt lat="51.647991500794888" lon="5.15230399556458">
        <ele>15.9</ele>
        <time>2019-09-08T12:46:29Z</time>
      </trkpt>
      <trkpt lat="51.647812547162175" lon="5.152098471298814">
        <ele>15.619999999999999</ele>
        <time>2019-09-08T12:46:44Z</time>
      </trkpt>
      <trkpt lat="51.64762563072145" lon="5.151821197941899">
        <ele>14.4</ele>
        <time>2019-09-08T12:47:04Z</time>
      </trkpt>
      <trkpt lat="51.647448437288404" lon="5.151569489389658">
        <ele>13.9</ele>
        <time>2019-09-08T12:47:24Z</time>
      </trkpt>
      <trkpt lat="51.647270154207945" lon="5.151420375332236">
        <ele>13.369999999999999</ele>
        <time>2019-09-08T12:47:43Z</time>
      </trkpt>
      <trkpt lat="51.647176528349519" lon="5.151367653161287">
        <ele>13.19</ele>
        <time>2019-09-08T12:47:49Z</time>
      </trkpt>
      <trkpt lat="51.646879389882088" lon="5.151158943772316">
        <ele>12.710000000000001</ele>
        <time>2019-09-08T12:48:06Z</time>
      </trkpt>
      <trkpt lat="51.646649474278092" lon="5.151007901877165">
        <ele>12.31</ele>
        <time>2019-09-08T12:48:21Z</time>
      </trkpt>
      <trkpt lat="51.646387372165918" lon="5.150827942416072">
        <ele>11.890000000000001</ele>
        <time>2019-09-08T12:48:36Z</time>
      </trkpt>
      <trkpt lat="51.646193247288465" lon="5.150685198605061">
        <ele>11.4</ele>
        <time>2019-09-08T12:48:53Z</time>
      </trkpt>
      <trkpt lat="51.646033991128206" lon="5.150586208328605">
        <ele>12.800000000000001</ele>
        <time>2019-09-08T12:49:04Z</time>
      </trkpt>
      <trkpt lat="51.645794017240405" lon="5.150498868897557">
        <ele>12.34</ele>
        <time>2019-09-08T12:49:18Z</time>
      </trkpt>
      <trkpt lat="51.645566448569298" lon="5.150529630482197">
        <ele>12.01</ele>
        <time>2019-09-08T12:49:33Z</time>
      </trkpt>
      <trkpt lat="51.645288253203034" lon="5.150572629645467">
        <ele>11.58</ele>
        <time>2019-09-08T12:49:52Z</time>
      </trkpt>
      <trkpt lat="51.645031934604049" lon="5.1506607234478">
        <ele>11.17</ele>
        <time>2019-09-08T12:50:10Z</time>
      </trkpt>
      <trkpt lat="51.64499195292592" lon="5.150653095915914">
        <ele>11.1</ele>
        <time>2019-09-08T12:50:13Z</time>
      </trkpt>
      <trkpt lat="51.644714176654816" lon="5.1507159601897">
        <ele>10.720000000000001</ele>
        <time>2019-09-08T12:50:31Z</time>
      </trkpt>
      <trkpt lat="51.644562548026443" lon="5.150754097849131">
        <ele>10.41</ele>
        <time>2019-09-08T12:50:45Z</time>
      </trkpt>
      <trkpt lat="51.643246086314321" lon="5.150339528918266">
        <ele>8.029999999999999</ele>
        <time>2019-09-08T12:52:39Z</time>
      </trkpt>
      <trkpt lat="51.642942577600479" lon="5.149929067119956">
        <ele>7.65</ele>
        <time>2019-09-08T12:53:01Z</time>
      </trkpt>
      <trkpt lat="51.642678212374449" lon="5.149744749069214">
        <ele>7.4</ele>
        <time>2019-09-08T12:53:15Z</time>
      </trkpt>
      <trkpt lat="51.642448464408517" lon="5.149603765457869">
        <ele>7.1</ele>
        <time>2019-09-08T12:53:33Z</time>
      </trkpt>
      <trkpt lat="51.641715886071324" lon="5.14931014738977">
        <ele>6.24</ele>
        <time>2019-09-08T12:54:25Z</time>
      </trkpt>
      <trkpt lat="51.641461327672005" lon="5.149215348064899">
        <ele>5.93</ele>
        <time>2019-09-08T12:54:43Z</time>
      </trkpt>
      <trkpt lat="51.641235519200563" lon="5.149134630337358">
        <ele>5.71</ele>
        <time>2019-09-08T12:54:59Z</time>
      </trkpt>
      <trkpt lat="51.640846431255341" lon="5.14891879633069">
        <ele>5.24</ele>
        <time>2019-09-08T12:55:30Z</time>
      </trkpt>
      <trkpt lat="51.640682900324464" lon="5.148849477991462">
        <ele>5.04</ele>
        <time>2019-09-08T12:55:43Z</time>
      </trkpt>
      <trkpt lat="51.640517609193921" lon="5.148783093318343">
        <ele>4.81</ele>
        <time>2019-09-08T12:55:58Z</time>
      </trkpt>
      <trkpt lat="51.640287693589926" lon="5.148707991465926">
        <ele>4.53</ele>
        <time>2019-09-08T12:56:16Z</time>
      </trkpt>
      <trkpt lat="51.63998594507575" lon="5.148632889613509">
        <ele>4.22</ele>
        <time>2019-09-08T12:56:33Z</time>
      </trkpt>
      <trkpt lat="51.639935653656721" lon="5.148624256253243">
        <ele>4.19</ele>
        <time>2019-09-08T12:56:35Z</time>
      </trkpt>
      <trkpt lat="51.639623092487454" lon="5.148601122200489">
        <ele>3.85</ele>
        <time>2019-09-08T12:56:55Z</time>
      </trkpt>
      <trkpt lat="51.639624433591962" lon="5.14839936979115">
        <ele>3.75</ele>
        <time>2019-09-08T12:57:07Z</time>
      </trkpt>
      <trkpt lat="51.639662319794297" lon="5.148154953494668">
        <ele>3.59</ele>
        <time>2019-09-08T12:57:24Z</time>
      </trkpt>
      <trkpt lat="51.639676988124847" lon="5.148145062848926">
        <ele>3.58</ele>
        <time>2019-09-08T12:57:25Z</time>
      </trkpt>
      <trkpt lat="51.639871029183269" lon="5.147717585787177">
        <ele>3.46</ele>
        <time>2019-09-08T12:59:08Z</time>
      </trkpt>
      <trkpt lat="51.640023244544864" lon="5.147214336320758">
        <ele>3.16</ele>
        <time>2019-09-08T12:59:30Z</time>
      </trkpt>
      <trkpt lat="51.640172190964222" lon="5.146882580593228">
        <ele>2.95</ele>
        <time>2019-09-08T12:59:46Z</time>
      </trkpt>
      <trkpt lat="51.640267241746187" lon="5.146595416590571">
        <ele>2.74</ele>
        <time>2019-09-08T13:00:02Z</time>
      </trkpt>
      <trkpt lat="51.640279646962881" lon="5.146552249789238">
        <ele>2.72</ele>
        <time>2019-09-08T13:00:04Z</time>
      </trkpt>
      <trkpt lat="51.640370758250356" lon="5.146079929545522">
        <ele>2.46</ele>
        <time>2019-09-08T13:00:24Z</time>
      </trkpt>
      <trkpt lat="51.640401016920805" lon="5.146015724167228">
        <ele>2.43</ele>
        <time>2019-09-08T13:00:26Z</time>
      </trkpt>
      <trkpt lat="51.640456672757864" lon="5.145894354209304">
        <ele>2.35</ele>
        <time>2019-09-08T13:00:32Z</time>
      </trkpt>
      <trkpt lat="51.640535714104772" lon="5.145552875474095">
        <ele>2.16</ele>
        <time>2019-09-08T13:00:47Z</time>
      </trkpt>
      <trkpt lat="51.64055909961462" lon="5.145162949338555">
        <ele>1.99</ele>
        <time>2019-09-08T13:01:02Z</time>
      </trkpt>
      <trkpt lat="51.640605786815286" lon="5.144842341542244">
        <ele>-0.43</ele>
        <time>2019-09-08T13:01:14Z</time>
      </trkpt>
      <trkpt lat="51.640636380761862" lon="5.144414864480496">
        <ele>-0.61</ele>
        <time>2019-09-08T13:01:33Z</time>
      </trkpt>
      <trkpt lat="51.640657922253013" lon="5.144071122631431">
        <ele>-0.75</ele>
        <time>2019-09-08T13:01:47Z</time>
      </trkpt>
      <trkpt lat="51.640661526471376" lon="5.143762081861496">
        <ele>-0.88</ele>
        <time>2019-09-08T13:02:02Z</time>
      </trkpt>
      <trkpt lat="51.640657922253013" lon="5.143529819324613">
        <ele>1.54</ele>
        <time>2019-09-08T13:02:09Z</time>
      </trkpt>
      <trkpt lat="51.640684911981225" lon="5.142995472997427">
        <ele>1.38</ele>
        <time>2019-09-08T13:02:30Z</time>
      </trkpt>
      <trkpt lat="51.640647109597921" lon="5.142674865201116">
        <ele>1.31</ele>
        <time>2019-09-08T13:02:40Z</time>
      </trkpt>
      <trkpt lat="51.640596818178892" lon="5.142354257404804">
        <ele>1.22</ele>
        <time>2019-09-08T13:02:55Z</time>
      </trkpt>
      <trkpt lat="51.64052926003933" lon="5.142061728984118">
        <ele>1.17</ele>
        <time>2019-09-08T13:03:09Z</time>
      </trkpt>
      <trkpt lat="51.640474442392588" lon="5.142006911337376">
        <ele>1.16</ele>
        <time>2019-09-08T13:03:14Z</time>
      </trkpt>
      <trkpt lat="51.640433371067047" lon="5.141937341541052">
        <ele>-19.100000000000001</ele>
        <time>2019-09-08T13:03:16Z</time>
      </trkpt>
      <trkpt lat="51.639448748901486" lon="5.14158496633172">
        <ele>7.30859375</ele>
      </trkpt>
      <trkpt lat="51.638540653511882" lon="5.141354044899344">
        <ele>7.015625</ele>
      </trkpt>
      <trkpt lat="51.638544257730246" lon="5.141354044899344">
        <ele>7.01953125</ele>
      </trkpt>
      <trkpt lat="51.63843646645546" lon="5.141862407326698">
        <ele>7.0703125</ele>
      </trkpt>
    </trkseg>
  </trk>

</gpx>